<?xml version="1.0" encoding="UTF-8" standalone="no" ?>
<gpx xmlns="http://www.topografix.com/GPX/1/1" xmlns:xsi="http://www.w3.org/2001/XMLSchema-instance" xsi:schemaLocation="http://www.topografix.com/GPX/1/1 http://www.topografix.com/GPX/1/1/gpx.xsd" version="1.1" creator="VisuGPX - https://www.visugpx.com">
  <metadata>
    <name>Gaillac Rando</name>
    <desc><![CDATA[Circuit Alos 20km - vers Tonnac / Itzac]]></desc>
  </metadata>
  <trk>
    <name><![CDATA[Tracé actuel: 11 DEC 2011 14:02]]></name>
    <trkseg>
      <trkpt lat="44.02418" lon="1.87815">
        <ele>257.77</ele>
        <time>2011-12-11T13:02:05Z</time>
      </trkpt>
      <trkpt lat="44.02417" lon="1.87803">
        <ele>256.81</ele>
        <time>2011-12-11T13:04:31Z</time>
      </trkpt>
      <trkpt lat="44.0241" lon="1.87798">
        <ele>256.33</ele>
        <time>2011-12-11T13:04:42Z</time>
      </trkpt>
      <trkpt lat="44.02401" lon="1.87789">
        <ele>254.89</ele>
        <time>2011-12-11T13:04:54Z</time>
      </trkpt>
      <trkpt lat="44.02399" lon="1.87771">
        <ele>253.44</ele>
        <time>2011-12-11T13:05:08Z</time>
      </trkpt>
      <trkpt lat="44.0239" lon="1.87775">
        <ele>252.48</ele>
        <time>2011-12-11T13:05:18Z</time>
      </trkpt>
      <trkpt lat="44.02383" lon="1.87781">
        <ele>252.96</ele>
        <time>2011-12-11T13:05:27Z</time>
      </trkpt>
      <trkpt lat="44.02386" lon="1.87788">
        <ele>252.96</ele>
        <time>2011-12-11T13:05:31Z</time>
      </trkpt>
      <trkpt lat="44.02381" lon="1.87808">
        <ele>251.04</ele>
        <time>2011-12-11T13:05:45Z</time>
      </trkpt>
      <trkpt lat="44.02375" lon="1.87824">
        <ele>249.12</ele>
        <time>2011-12-11T13:05:56Z</time>
      </trkpt>
      <trkpt lat="44.02373" lon="1.87839">
        <ele>248.16</ele>
        <time>2011-12-11T13:06:06Z</time>
      </trkpt>
      <trkpt lat="44.02369" lon="1.87851">
        <ele>248.64</ele>
        <time>2011-12-11T13:06:16Z</time>
      </trkpt>
      <trkpt lat="44.0236" lon="1.87871">
        <ele>251.52</ele>
        <time>2011-12-11T13:06:28Z</time>
      </trkpt>
      <trkpt lat="44.0235" lon="1.87887">
        <ele>251.04</ele>
        <time>2011-12-11T13:06:40Z</time>
      </trkpt>
      <trkpt lat="44.02336" lon="1.87908">
        <ele>250.08</ele>
        <time>2011-12-11T13:06:57Z</time>
      </trkpt>
      <trkpt lat="44.02323" lon="1.87922">
        <ele>249.6</ele>
        <time>2011-12-11T13:07:10Z</time>
      </trkpt>
      <trkpt lat="44.02317" lon="1.87925">
        <ele>248.16</ele>
        <time>2011-12-11T13:07:16Z</time>
      </trkpt>
      <trkpt lat="44.02316" lon="1.87916">
        <ele>245.27</ele>
        <time>2011-12-11T13:07:34Z</time>
      </trkpt>
      <trkpt lat="44.02314" lon="1.87919">
        <ele>243.35</ele>
        <time>2011-12-11T13:08:04Z</time>
      </trkpt>
      <trkpt lat="44.02291" lon="1.87941">
        <ele>237.1</ele>
        <time>2011-12-11T13:08:19Z</time>
      </trkpt>
      <trkpt lat="44.02282" lon="1.87942">
        <ele>236.14</ele>
        <time>2011-12-11T13:08:24Z</time>
      </trkpt>
      <trkpt lat="44.02273" lon="1.87939">
        <ele>236.14</ele>
        <time>2011-12-11T13:08:29Z</time>
      </trkpt>
      <trkpt lat="44.0227" lon="1.87937">
        <ele>235.66</ele>
        <time>2011-12-11T13:08:31Z</time>
      </trkpt>
      <trkpt lat="44.02248" lon="1.87918">
        <ele>235.18</ele>
        <time>2011-12-11T13:08:46Z</time>
      </trkpt>
      <trkpt lat="44.02242" lon="1.87911">
        <ele>235.66</ele>
        <time>2011-12-11T13:08:58Z</time>
      </trkpt>
      <trkpt lat="44.02225" lon="1.87891">
        <ele>238.06</ele>
        <time>2011-12-11T13:09:12Z</time>
      </trkpt>
      <trkpt lat="44.02203" lon="1.87868">
        <ele>239.99</ele>
        <time>2011-12-11T13:09:28Z</time>
      </trkpt>
      <trkpt lat="44.02187" lon="1.87848">
        <ele>242.87</ele>
        <time>2011-12-11T13:09:42Z</time>
      </trkpt>
      <trkpt lat="44.02175" lon="1.87829">
        <ele>246.72</ele>
        <time>2011-12-11T13:09:54Z</time>
      </trkpt>
      <trkpt lat="44.02166" lon="1.87801">
        <ele>251.04</ele>
        <time>2011-12-11T13:10:09Z</time>
      </trkpt>
      <trkpt lat="44.02154" lon="1.8778">
        <ele>252.96</ele>
        <time>2011-12-11T13:10:24Z</time>
      </trkpt>
      <trkpt lat="44.02144" lon="1.87776">
        <ele>253.93</ele>
        <time>2011-12-11T13:10:33Z</time>
      </trkpt>
      <trkpt lat="44.02121" lon="1.87771">
        <ele>253.44</ele>
        <time>2011-12-11T13:10:49Z</time>
      </trkpt>
      <trkpt lat="44.02104" lon="1.87764">
        <ele>252</ele>
        <time>2011-12-11T13:11:03Z</time>
      </trkpt>
      <trkpt lat="44.02081" lon="1.87752">
        <ele>251.04</ele>
        <time>2011-12-11T13:11:21Z</time>
      </trkpt>
      <trkpt lat="44.02064" lon="1.87742">
        <ele>250.08</ele>
        <time>2011-12-11T13:11:37Z</time>
      </trkpt>
      <trkpt lat="44.02057" lon="1.87728">
        <ele>248.64</ele>
        <time>2011-12-11T13:11:49Z</time>
      </trkpt>
      <trkpt lat="44.02065" lon="1.87722">
        <ele>246.72</ele>
        <time>2011-12-11T13:11:57Z</time>
      </trkpt>
      <trkpt lat="44.0209" lon="1.87707">
        <ele>243.83</ele>
        <time>2011-12-11T13:12:18Z</time>
      </trkpt>
      <trkpt lat="44.02114" lon="1.87694">
        <ele>241.43</ele>
        <time>2011-12-11T13:12:37Z</time>
      </trkpt>
      <trkpt lat="44.02139" lon="1.87681">
        <ele>239.51</ele>
        <time>2011-12-11T13:12:55Z</time>
      </trkpt>
      <trkpt lat="44.02162" lon="1.87668">
        <ele>239.51</ele>
        <time>2011-12-11T13:13:12Z</time>
      </trkpt>
      <trkpt lat="44.02177" lon="1.87661">
        <ele>238.06</ele>
        <time>2011-12-11T13:13:24Z</time>
      </trkpt>
      <trkpt lat="44.022" lon="1.87647">
        <ele>235.66</ele>
        <time>2011-12-11T13:13:40Z</time>
      </trkpt>
      <trkpt lat="44.02214" lon="1.87637">
        <ele>235.66</ele>
        <time>2011-12-11T13:13:51Z</time>
      </trkpt>
      <trkpt lat="44.02224" lon="1.87631">
        <ele>235.66</ele>
        <time>2011-12-11T13:13:59Z</time>
      </trkpt>
      <trkpt lat="44.02241" lon="1.87624">
        <ele>230.85</ele>
        <time>2011-12-11T13:14:12Z</time>
      </trkpt>
      <trkpt lat="44.02265" lon="1.87614">
        <ele>227.01</ele>
        <time>2011-12-11T13:14:29Z</time>
      </trkpt>
      <trkpt lat="44.02282" lon="1.87611">
        <ele>223.64</ele>
        <time>2011-12-11T13:14:41Z</time>
      </trkpt>
      <trkpt lat="44.02289" lon="1.87604">
        <ele>222.68</ele>
        <time>2011-12-11T13:14:47Z</time>
      </trkpt>
      <trkpt lat="44.02291" lon="1.87586">
        <ele>219.8</ele>
        <time>2011-12-11T13:14:56Z</time>
      </trkpt>
      <trkpt lat="44.0229" lon="1.8755">
        <ele>222.68</ele>
        <time>2011-12-11T13:15:09Z</time>
      </trkpt>
      <trkpt lat="44.02297" lon="1.87511">
        <ele>219.32</ele>
        <time>2011-12-11T13:15:29Z</time>
      </trkpt>
      <trkpt lat="44.02302" lon="1.87477">
        <ele>221.72</ele>
        <time>2011-12-11T13:15:44Z</time>
      </trkpt>
      <trkpt lat="44.02307" lon="1.87458">
        <ele>219.8</ele>
        <time>2011-12-11T13:15:56Z</time>
      </trkpt>
      <trkpt lat="44.02309" lon="1.8745">
        <ele>218.36</ele>
        <time>2011-12-11T13:16:01Z</time>
      </trkpt>
      <trkpt lat="44.02319" lon="1.87412">
        <ele>217.4</ele>
        <time>2011-12-11T13:16:21Z</time>
      </trkpt>
      <trkpt lat="44.02331" lon="1.87384">
        <ele>218.36</ele>
        <time>2011-12-11T13:16:37Z</time>
      </trkpt>
      <trkpt lat="44.02336" lon="1.87366">
        <ele>219.8</ele>
        <time>2011-12-11T13:16:46Z</time>
      </trkpt>
      <trkpt lat="44.02346" lon="1.8733">
        <ele>221.72</ele>
        <time>2011-12-11T13:17:05Z</time>
      </trkpt>
      <trkpt lat="44.02352" lon="1.87303">
        <ele>221.24</ele>
        <time>2011-12-11T13:17:21Z</time>
      </trkpt>
      <trkpt lat="44.02352" lon="1.87276">
        <ele>219.32</ele>
        <time>2011-12-11T13:17:37Z</time>
      </trkpt>
      <trkpt lat="44.02348" lon="1.87258">
        <ele>218.84</ele>
        <time>2011-12-11T13:17:49Z</time>
      </trkpt>
      <trkpt lat="44.02343" lon="1.87238">
        <ele>218.36</ele>
        <time>2011-12-11T13:18:03Z</time>
      </trkpt>
      <trkpt lat="44.02337" lon="1.87218">
        <ele>214.99</ele>
        <time>2011-12-11T13:18:18Z</time>
      </trkpt>
      <trkpt lat="44.02321" lon="1.87185">
        <ele>218.36</ele>
        <time>2011-12-11T13:18:36Z</time>
      </trkpt>
      <trkpt lat="44.02309" lon="1.87172">
        <ele>220.76</ele>
        <time>2011-12-11T13:18:49Z</time>
      </trkpt>
      <trkpt lat="44.02302" lon="1.87154">
        <ele>219.8</ele>
        <time>2011-12-11T13:19:02Z</time>
      </trkpt>
      <trkpt lat="44.02302" lon="1.87136">
        <ele>218.36</ele>
        <time>2011-12-11T13:19:14Z</time>
      </trkpt>
      <trkpt lat="44.02305" lon="1.87124">
        <ele>216.43</ele>
        <time>2011-12-11T13:19:23Z</time>
      </trkpt>
      <trkpt lat="44.02311" lon="1.87106">
        <ele>217.88</ele>
        <time>2011-12-11T13:19:35Z</time>
      </trkpt>
      <trkpt lat="44.02314" lon="1.87094">
        <ele>218.36</ele>
        <time>2011-12-11T13:19:45Z</time>
      </trkpt>
      <trkpt lat="44.02315" lon="1.87081">
        <ele>219.32</ele>
        <time>2011-12-11T13:19:54Z</time>
      </trkpt>
      <trkpt lat="44.02313" lon="1.8706">
        <ele>219.8</ele>
        <time>2011-12-11T13:20:05Z</time>
      </trkpt>
      <trkpt lat="44.02308" lon="1.87037">
        <ele>219.32</ele>
        <time>2011-12-11T13:20:20Z</time>
      </trkpt>
      <trkpt lat="44.02307" lon="1.87008">
        <ele>218.84</ele>
        <time>2011-12-11T13:20:36Z</time>
      </trkpt>
      <trkpt lat="44.02309" lon="1.86979">
        <ele>217.88</ele>
        <time>2011-12-11T13:20:52Z</time>
      </trkpt>
      <trkpt lat="44.02313" lon="1.86965">
        <ele>216.91</ele>
        <time>2011-12-11T13:21:00Z</time>
      </trkpt>
      <trkpt lat="44.02322" lon="1.86939">
        <ele>215.47</ele>
        <time>2011-12-11T13:21:17Z</time>
      </trkpt>
      <trkpt lat="44.02339" lon="1.86923">
        <ele>215.47</ele>
        <time>2011-12-11T13:21:33Z</time>
      </trkpt>
      <trkpt lat="44.02339" lon="1.86901">
        <ele>215.95</ele>
        <time>2011-12-11T13:21:46Z</time>
      </trkpt>
      <trkpt lat="44.02326" lon="1.86886">
        <ele>214.99</ele>
        <time>2011-12-11T13:22:01Z</time>
      </trkpt>
      <trkpt lat="44.02314" lon="1.86872">
        <ele>215.95</ele>
        <time>2011-12-11T13:22:14Z</time>
      </trkpt>
      <trkpt lat="44.02319" lon="1.8686">
        <ele>215.95</ele>
        <time>2011-12-11T13:22:26Z</time>
      </trkpt>
      <trkpt lat="44.0233" lon="1.86843">
        <ele>217.4</ele>
        <time>2011-12-11T13:22:39Z</time>
      </trkpt>
      <trkpt lat="44.02344" lon="1.86832">
        <ele>217.4</ele>
        <time>2011-12-11T13:22:54Z</time>
      </trkpt>
      <trkpt lat="44.0235" lon="1.86821">
        <ele>219.32</ele>
        <time>2011-12-11T13:23:12Z</time>
      </trkpt>
      <trkpt lat="44.02358" lon="1.86807">
        <ele>222.68</ele>
        <time>2011-12-11T13:23:35Z</time>
      </trkpt>
      <trkpt lat="44.02369" lon="1.86776">
        <ele>229.41</ele>
        <time>2011-12-11T13:24:03Z</time>
      </trkpt>
      <trkpt lat="44.02375" lon="1.86766">
        <ele>233.74</ele>
        <time>2011-12-11T13:24:25Z</time>
      </trkpt>
      <trkpt lat="44.0239" lon="1.86715">
        <ele>238.06</ele>
        <time>2011-12-11T13:25:09Z</time>
      </trkpt>
      <trkpt lat="44.02404" lon="1.86667">
        <ele>240.47</ele>
        <time>2011-12-11T13:25:45Z</time>
      </trkpt>
      <trkpt lat="44.0241" lon="1.86639">
        <ele>241.43</ele>
        <time>2011-12-11T13:26:08Z</time>
      </trkpt>
      <trkpt lat="44.02414" lon="1.86625">
        <ele>240.47</ele>
        <time>2011-12-11T13:26:34Z</time>
      </trkpt>
      <trkpt lat="44.02413" lon="1.86626">
        <ele>241.91</ele>
        <time>2011-12-11T13:27:18Z</time>
      </trkpt>
      <trkpt lat="44.02412" lon="1.86622">
        <ele>250.56</ele>
        <time>2011-12-11T13:27:42Z</time>
      </trkpt>
      <trkpt lat="44.02414" lon="1.86617">
        <ele>253.44</ele>
        <time>2011-12-11T13:27:54Z</time>
      </trkpt>
      <trkpt lat="44.02414" lon="1.86616">
        <ele>253.44</ele>
        <time>2011-12-11T13:28:15Z</time>
      </trkpt>
      <trkpt lat="44.02417" lon="1.86617">
        <ele>252.48</ele>
        <time>2011-12-11T13:28:29Z</time>
      </trkpt>
      <trkpt lat="44.02416" lon="1.86616">
        <ele>252.48</ele>
        <time>2011-12-11T13:29:02Z</time>
      </trkpt>
      <trkpt lat="44.02415" lon="1.86611">
        <ele>253.44</ele>
        <time>2011-12-11T13:29:23Z</time>
      </trkpt>
      <trkpt lat="44.02411" lon="1.86609">
        <ele>254.41</ele>
        <time>2011-12-11T13:29:38Z</time>
      </trkpt>
      <trkpt lat="44.02407" lon="1.86607">
        <ele>258.73</ele>
        <time>2011-12-11T13:29:49Z</time>
      </trkpt>
      <trkpt lat="44.02401" lon="1.86597">
        <ele>263.06</ele>
        <time>2011-12-11T13:30:03Z</time>
      </trkpt>
      <trkpt lat="44.02398" lon="1.86594">
        <ele>264.5</ele>
        <time>2011-12-11T13:30:08Z</time>
      </trkpt>
      <trkpt lat="44.0239" lon="1.86586">
        <ele>269.79</ele>
        <time>2011-12-11T13:30:19Z</time>
      </trkpt>
      <trkpt lat="44.02391" lon="1.86579">
        <ele>270.27</ele>
        <time>2011-12-11T13:30:26Z</time>
      </trkpt>
      <trkpt lat="44.02383" lon="1.86576">
        <ele>271.23</ele>
        <time>2011-12-11T13:30:32Z</time>
      </trkpt>
      <trkpt lat="44.02371" lon="1.86557">
        <ele>270.75</ele>
        <time>2011-12-11T13:30:48Z</time>
      </trkpt>
      <trkpt lat="44.0237" lon="1.86541">
        <ele>274.59</ele>
        <time>2011-12-11T13:31:01Z</time>
      </trkpt>
      <trkpt lat="44.02374" lon="1.86522">
        <ele>274.59</ele>
        <time>2011-12-11T13:31:13Z</time>
      </trkpt>
      <trkpt lat="44.02377" lon="1.86516">
        <ele>275.07</ele>
        <time>2011-12-11T13:31:18Z</time>
      </trkpt>
      <trkpt lat="44.02382" lon="1.86507">
        <ele>276.04</ele>
        <time>2011-12-11T13:31:26Z</time>
      </trkpt>
      <trkpt lat="44.02388" lon="1.86492">
        <ele>276.52</ele>
        <time>2011-12-11T13:31:36Z</time>
      </trkpt>
      <trkpt lat="44.02389" lon="1.86488">
        <ele>277</ele>
        <time>2011-12-11T13:31:39Z</time>
      </trkpt>
      <trkpt lat="44.0239" lon="1.8648">
        <ele>277.96</ele>
        <time>2011-12-11T13:31:45Z</time>
      </trkpt>
      <trkpt lat="44.02388" lon="1.86475">
        <ele>278.44</ele>
        <time>2011-12-11T13:31:48Z</time>
      </trkpt>
      <trkpt lat="44.02387" lon="1.86473">
        <ele>278.92</ele>
        <time>2011-12-11T13:31:50Z</time>
      </trkpt>
      <trkpt lat="44.02381" lon="1.86454">
        <ele>280.36</ele>
        <time>2011-12-11T13:32:03Z</time>
      </trkpt>
      <trkpt lat="44.02378" lon="1.86437">
        <ele>280.84</ele>
        <time>2011-12-11T13:32:16Z</time>
      </trkpt>
      <trkpt lat="44.02374" lon="1.86423">
        <ele>282.28</ele>
        <time>2011-12-11T13:32:27Z</time>
      </trkpt>
      <trkpt lat="44.0237" lon="1.8641">
        <ele>284.21</ele>
        <time>2011-12-11T13:32:36Z</time>
      </trkpt>
      <trkpt lat="44.02368" lon="1.86392">
        <ele>285.17</ele>
        <time>2011-12-11T13:32:48Z</time>
      </trkpt>
      <trkpt lat="44.02363" lon="1.86366">
        <ele>286.13</ele>
        <time>2011-12-11T13:33:02Z</time>
      </trkpt>
      <trkpt lat="44.02362" lon="1.8636">
        <ele>287.57</ele>
        <time>2011-12-11T13:33:08Z</time>
      </trkpt>
      <trkpt lat="44.02357" lon="1.86349">
        <ele>290.46</ele>
        <time>2011-12-11T13:33:19Z</time>
      </trkpt>
      <trkpt lat="44.02353" lon="1.86346">
        <ele>294.78</ele>
        <time>2011-12-11T13:33:30Z</time>
      </trkpt>
      <trkpt lat="44.02354" lon="1.86345">
        <ele>295.74</ele>
        <time>2011-12-11T13:33:32Z</time>
      </trkpt>
      <trkpt lat="44.02361" lon="1.86336">
        <ele>298.15</ele>
        <time>2011-12-11T13:33:45Z</time>
      </trkpt>
      <trkpt lat="44.02367" lon="1.86332">
        <ele>298.63</ele>
        <time>2011-12-11T13:33:58Z</time>
      </trkpt>
      <trkpt lat="44.02376" lon="1.86328">
        <ele>301.99</ele>
        <time>2011-12-11T13:34:14Z</time>
      </trkpt>
      <trkpt lat="44.02385" lon="1.86325">
        <ele>303.43</ele>
        <time>2011-12-11T13:34:24Z</time>
      </trkpt>
      <trkpt lat="44.02391" lon="1.86321">
        <ele>305.84</ele>
        <time>2011-12-11T13:34:34Z</time>
      </trkpt>
      <trkpt lat="44.024" lon="1.86313">
        <ele>309.2</ele>
        <time>2011-12-11T13:34:45Z</time>
      </trkpt>
      <trkpt lat="44.02403" lon="1.8631">
        <ele>312.57</ele>
        <time>2011-12-11T13:34:51Z</time>
      </trkpt>
      <trkpt lat="44.0241" lon="1.86305">
        <ele>319.78</ele>
        <time>2011-12-11T13:35:02Z</time>
      </trkpt>
      <trkpt lat="44.02428" lon="1.86302">
        <ele>324.1</ele>
        <time>2011-12-11T13:35:14Z</time>
      </trkpt>
      <trkpt lat="44.02448" lon="1.8631">
        <ele>320.74</ele>
        <time>2011-12-11T13:35:19Z</time>
      </trkpt>
      <trkpt lat="44.02454" lon="1.8631">
        <ele>314.01</ele>
        <time>2011-12-11T13:35:27Z</time>
      </trkpt>
      <trkpt lat="44.0248" lon="1.86313">
        <ele>303.43</ele>
        <time>2011-12-11T13:35:44Z</time>
      </trkpt>
      <trkpt lat="44.02484" lon="1.86313">
        <ele>302.95</ele>
        <time>2011-12-11T13:35:48Z</time>
      </trkpt>
      <trkpt lat="44.02489" lon="1.86313">
        <ele>301.99</ele>
        <time>2011-12-11T13:35:52Z</time>
      </trkpt>
      <trkpt lat="44.02502" lon="1.86316">
        <ele>297.18</ele>
        <time>2011-12-11T13:36:05Z</time>
      </trkpt>
      <trkpt lat="44.02521" lon="1.86308">
        <ele>289.01</ele>
        <time>2011-12-11T13:36:20Z</time>
      </trkpt>
      <trkpt lat="44.02522" lon="1.86306">
        <ele>289.01</ele>
        <time>2011-12-11T13:36:21Z</time>
      </trkpt>
      <trkpt lat="44.02539" lon="1.86294">
        <ele>281.8</ele>
        <time>2011-12-11T13:36:33Z</time>
      </trkpt>
      <trkpt lat="44.02548" lon="1.86277">
        <ele>282.77</ele>
        <time>2011-12-11T13:36:45Z</time>
      </trkpt>
      <trkpt lat="44.02553" lon="1.8626">
        <ele>285.17</ele>
        <time>2011-12-11T13:37:00Z</time>
      </trkpt>
      <trkpt lat="44.02556" lon="1.86241">
        <ele>289.01</ele>
        <time>2011-12-11T13:37:12Z</time>
      </trkpt>
      <trkpt lat="44.02564" lon="1.86213">
        <ele>287.57</ele>
        <time>2011-12-11T13:37:27Z</time>
      </trkpt>
      <trkpt lat="44.02574" lon="1.86192">
        <ele>284.69</ele>
        <time>2011-12-11T13:37:41Z</time>
      </trkpt>
      <trkpt lat="44.02587" lon="1.86167">
        <ele>281.8</ele>
        <time>2011-12-11T13:37:57Z</time>
      </trkpt>
      <trkpt lat="44.02597" lon="1.86147">
        <ele>281.32</ele>
        <time>2011-12-11T13:38:12Z</time>
      </trkpt>
      <trkpt lat="44.02606" lon="1.86121">
        <ele>281.8</ele>
        <time>2011-12-11T13:38:29Z</time>
      </trkpt>
      <trkpt lat="44.02613" lon="1.86094">
        <ele>280.84</ele>
        <time>2011-12-11T13:38:44Z</time>
      </trkpt>
      <trkpt lat="44.02627" lon="1.8609">
        <ele>281.8</ele>
        <time>2011-12-11T13:38:57Z</time>
      </trkpt>
      <trkpt lat="44.0264" lon="1.86104">
        <ele>282.28</ele>
        <time>2011-12-11T13:39:11Z</time>
      </trkpt>
      <trkpt lat="44.0266" lon="1.86119">
        <ele>282.77</ele>
        <time>2011-12-11T13:39:28Z</time>
      </trkpt>
      <trkpt lat="44.02675" lon="1.86131">
        <ele>285.17</ele>
        <time>2011-12-11T13:39:44Z</time>
      </trkpt>
      <trkpt lat="44.02681" lon="1.86135">
        <ele>284.69</ele>
        <time>2011-12-11T13:39:56Z</time>
      </trkpt>
      <trkpt lat="44.02698" lon="1.86142">
        <ele>285.17</ele>
        <time>2011-12-11T13:40:09Z</time>
      </trkpt>
      <trkpt lat="44.02712" lon="1.86154">
        <ele>283.73</ele>
        <time>2011-12-11T13:40:23Z</time>
      </trkpt>
      <trkpt lat="44.02729" lon="1.86165">
        <ele>284.69</ele>
        <time>2011-12-11T13:40:37Z</time>
      </trkpt>
      <trkpt lat="44.02735" lon="1.8617">
        <ele>284.21</ele>
        <time>2011-12-11T13:40:43Z</time>
      </trkpt>
      <trkpt lat="44.0275" lon="1.86183">
        <ele>284.69</ele>
        <time>2011-12-11T13:40:57Z</time>
      </trkpt>
      <trkpt lat="44.02766" lon="1.86199">
        <ele>285.17</ele>
        <time>2011-12-11T13:41:13Z</time>
      </trkpt>
      <trkpt lat="44.02787" lon="1.86216">
        <ele>283.73</ele>
        <time>2011-12-11T13:41:31Z</time>
      </trkpt>
      <trkpt lat="44.02803" lon="1.86229">
        <ele>281.32</ele>
        <time>2011-12-11T13:41:46Z</time>
      </trkpt>
      <trkpt lat="44.02818" lon="1.86242">
        <ele>279.88</ele>
        <time>2011-12-11T13:42:00Z</time>
      </trkpt>
      <trkpt lat="44.02834" lon="1.86255">
        <ele>279.4</ele>
        <time>2011-12-11T13:42:15Z</time>
      </trkpt>
      <trkpt lat="44.02848" lon="1.86272">
        <ele>279.88</ele>
        <time>2011-12-11T13:42:30Z</time>
      </trkpt>
      <trkpt lat="44.02865" lon="1.86289">
        <ele>277</ele>
        <time>2011-12-11T13:42:46Z</time>
      </trkpt>
      <trkpt lat="44.02874" lon="1.86297">
        <ele>278.44</ele>
        <time>2011-12-11T13:42:55Z</time>
      </trkpt>
      <trkpt lat="44.02888" lon="1.86308">
        <ele>278.92</ele>
        <time>2011-12-11T13:43:10Z</time>
      </trkpt>
      <trkpt lat="44.02902" lon="1.8632">
        <ele>281.32</ele>
        <time>2011-12-11T13:43:23Z</time>
      </trkpt>
      <trkpt lat="44.02917" lon="1.8633">
        <ele>282.28</ele>
        <time>2011-12-11T13:43:36Z</time>
      </trkpt>
      <trkpt lat="44.02932" lon="1.86342">
        <ele>281.8</ele>
        <time>2011-12-11T13:43:47Z</time>
      </trkpt>
      <trkpt lat="44.02948" lon="1.86357">
        <ele>279.88</ele>
        <time>2011-12-11T13:44:02Z</time>
      </trkpt>
      <trkpt lat="44.02964" lon="1.86375">
        <ele>279.4</ele>
        <time>2011-12-11T13:44:18Z</time>
      </trkpt>
      <trkpt lat="44.02976" lon="1.86395">
        <ele>280.36</ele>
        <time>2011-12-11T13:44:32Z</time>
      </trkpt>
      <trkpt lat="44.0299" lon="1.86419">
        <ele>279.4</ele>
        <time>2011-12-11T13:44:48Z</time>
      </trkpt>
      <trkpt lat="44.03" lon="1.86437">
        <ele>279.88</ele>
        <time>2011-12-11T13:45:02Z</time>
      </trkpt>
      <trkpt lat="44.03009" lon="1.86452">
        <ele>280.36</ele>
        <time>2011-12-11T13:45:14Z</time>
      </trkpt>
      <trkpt lat="44.03021" lon="1.86471">
        <ele>280.84</ele>
        <time>2011-12-11T13:45:28Z</time>
      </trkpt>
      <trkpt lat="44.03034" lon="1.86489">
        <ele>281.8</ele>
        <time>2011-12-11T13:45:42Z</time>
      </trkpt>
      <trkpt lat="44.03045" lon="1.86508">
        <ele>281.32</ele>
        <time>2011-12-11T13:45:56Z</time>
      </trkpt>
      <trkpt lat="44.03052" lon="1.8652">
        <ele>282.28</ele>
        <time>2011-12-11T13:46:07Z</time>
      </trkpt>
      <trkpt lat="44.0306" lon="1.86537">
        <ele>284.21</ele>
        <time>2011-12-11T13:46:21Z</time>
      </trkpt>
      <trkpt lat="44.0307" lon="1.86556">
        <ele>285.65</ele>
        <time>2011-12-11T13:46:34Z</time>
      </trkpt>
      <trkpt lat="44.03077" lon="1.86572">
        <ele>287.09</ele>
        <time>2011-12-11T13:46:44Z</time>
      </trkpt>
      <trkpt lat="44.03077" lon="1.86573">
        <ele>287.57</ele>
        <time>2011-12-11T13:46:45Z</time>
      </trkpt>
      <trkpt lat="44.03088" lon="1.86594">
        <ele>287.57</ele>
        <time>2011-12-11T13:46:59Z</time>
      </trkpt>
      <trkpt lat="44.03097" lon="1.86614">
        <ele>286.61</ele>
        <time>2011-12-11T13:47:13Z</time>
      </trkpt>
      <trkpt lat="44.0311" lon="1.86637">
        <ele>285.65</ele>
        <time>2011-12-11T13:47:28Z</time>
      </trkpt>
      <trkpt lat="44.03121" lon="1.86665">
        <ele>287.09</ele>
        <time>2011-12-11T13:47:46Z</time>
      </trkpt>
      <trkpt lat="44.03128" lon="1.86675">
        <ele>286.13</ele>
        <time>2011-12-11T13:47:58Z</time>
      </trkpt>
      <trkpt lat="44.03128" lon="1.86676">
        <ele>286.13</ele>
        <time>2011-12-11T13:48:22Z</time>
      </trkpt>
      <trkpt lat="44.03131" lon="1.86675">
        <ele>286.13</ele>
        <time>2011-12-11T13:48:33Z</time>
      </trkpt>
      <trkpt lat="44.03145" lon="1.8666">
        <ele>285.65</ele>
        <time>2011-12-11T13:48:49Z</time>
      </trkpt>
      <trkpt lat="44.03155" lon="1.86643">
        <ele>285.65</ele>
        <time>2011-12-11T13:49:03Z</time>
      </trkpt>
      <trkpt lat="44.03168" lon="1.86625">
        <ele>284.69</ele>
        <time>2011-12-11T13:49:18Z</time>
      </trkpt>
      <trkpt lat="44.03174" lon="1.86617">
        <ele>284.21</ele>
        <time>2011-12-11T13:49:24Z</time>
      </trkpt>
      <trkpt lat="44.03182" lon="1.86604">
        <ele>284.21</ele>
        <time>2011-12-11T13:49:35Z</time>
      </trkpt>
      <trkpt lat="44.03187" lon="1.86598">
        <ele>284.21</ele>
        <time>2011-12-11T13:49:40Z</time>
      </trkpt>
      <trkpt lat="44.032" lon="1.86576">
        <ele>283.73</ele>
        <time>2011-12-11T13:49:57Z</time>
      </trkpt>
      <trkpt lat="44.0321" lon="1.86559">
        <ele>284.21</ele>
        <time>2011-12-11T13:50:11Z</time>
      </trkpt>
      <trkpt lat="44.03221" lon="1.86545">
        <ele>283.73</ele>
        <time>2011-12-11T13:50:24Z</time>
      </trkpt>
      <trkpt lat="44.03233" lon="1.86529">
        <ele>282.28</ele>
        <time>2011-12-11T13:50:37Z</time>
      </trkpt>
      <trkpt lat="44.03244" lon="1.86515">
        <ele>281.8</ele>
        <time>2011-12-11T13:50:50Z</time>
      </trkpt>
      <trkpt lat="44.03255" lon="1.86498">
        <ele>281.8</ele>
        <time>2011-12-11T13:51:03Z</time>
      </trkpt>
      <trkpt lat="44.03257" lon="1.86494">
        <ele>281.32</ele>
        <time>2011-12-11T13:51:06Z</time>
      </trkpt>
      <trkpt lat="44.03268" lon="1.86475">
        <ele>279.88</ele>
        <time>2011-12-11T13:51:20Z</time>
      </trkpt>
      <trkpt lat="44.03277" lon="1.86463">
        <ele>279.88</ele>
        <time>2011-12-11T13:51:32Z</time>
      </trkpt>
      <trkpt lat="44.03284" lon="1.86446">
        <ele>279.4</ele>
        <time>2011-12-11T13:51:44Z</time>
      </trkpt>
      <trkpt lat="44.0329" lon="1.86431">
        <ele>277.96</ele>
        <time>2011-12-11T13:51:55Z</time>
      </trkpt>
      <trkpt lat="44.0329" lon="1.86429">
        <ele>277.96</ele>
        <time>2011-12-11T13:51:56Z</time>
      </trkpt>
      <trkpt lat="44.03297" lon="1.86417">
        <ele>281.8</ele>
        <time>2011-12-11T13:52:08Z</time>
      </trkpt>
      <trkpt lat="44.033" lon="1.86412">
        <ele>283.25</ele>
        <time>2011-12-11T13:52:15Z</time>
      </trkpt>
      <trkpt lat="44.03307" lon="1.86403">
        <ele>286.13</ele>
        <time>2011-12-11T13:52:27Z</time>
      </trkpt>
      <trkpt lat="44.0331" lon="1.86389">
        <ele>289.97</ele>
        <time>2011-12-11T13:52:38Z</time>
      </trkpt>
      <trkpt lat="44.03312" lon="1.86377">
        <ele>291.42</ele>
        <time>2011-12-11T13:52:49Z</time>
      </trkpt>
      <trkpt lat="44.03316" lon="1.86366">
        <ele>295.26</ele>
        <time>2011-12-11T13:53:02Z</time>
      </trkpt>
      <trkpt lat="44.03318" lon="1.86357">
        <ele>297.18</ele>
        <time>2011-12-11T13:53:15Z</time>
      </trkpt>
      <trkpt lat="44.0332" lon="1.86348">
        <ele>297.67</ele>
        <time>2011-12-11T13:53:20Z</time>
      </trkpt>
      <trkpt lat="44.03327" lon="1.86329">
        <ele>296.22</ele>
        <time>2011-12-11T13:53:34Z</time>
      </trkpt>
      <trkpt lat="44.03334" lon="1.86318">
        <ele>298.63</ele>
        <time>2011-12-11T13:53:47Z</time>
      </trkpt>
      <trkpt lat="44.03341" lon="1.863">
        <ele>299.11</ele>
        <time>2011-12-11T13:54:00Z</time>
      </trkpt>
      <trkpt lat="44.03349" lon="1.86284">
        <ele>296.7</ele>
        <time>2011-12-11T13:54:12Z</time>
      </trkpt>
      <trkpt lat="44.03356" lon="1.86267">
        <ele>290.46</ele>
        <time>2011-12-11T13:54:27Z</time>
      </trkpt>
      <trkpt lat="44.0336" lon="1.86252">
        <ele>286.13</ele>
        <time>2011-12-11T13:54:39Z</time>
      </trkpt>
      <trkpt lat="44.0337" lon="1.86231">
        <ele>281.32</ele>
        <time>2011-12-11T13:54:52Z</time>
      </trkpt>
      <trkpt lat="44.03374" lon="1.86218">
        <ele>277.48</ele>
        <time>2011-12-11T13:55:05Z</time>
      </trkpt>
      <trkpt lat="44.03376" lon="1.86204">
        <ele>269.79</ele>
        <time>2011-12-11T13:55:17Z</time>
      </trkpt>
      <trkpt lat="44.0338" lon="1.86189">
        <ele>264.5</ele>
        <time>2011-12-11T13:55:31Z</time>
      </trkpt>
      <trkpt lat="44.03382" lon="1.86187">
        <ele>260.17</ele>
        <time>2011-12-11T13:55:44Z</time>
      </trkpt>
      <trkpt lat="44.03383" lon="1.86177">
        <ele>260.17</ele>
        <time>2011-12-11T13:55:55Z</time>
      </trkpt>
      <trkpt lat="44.03387" lon="1.86159">
        <ele>257.29</ele>
        <time>2011-12-11T13:56:07Z</time>
      </trkpt>
      <trkpt lat="44.03391" lon="1.86145">
        <ele>256.33</ele>
        <time>2011-12-11T13:56:18Z</time>
      </trkpt>
      <trkpt lat="44.03397" lon="1.86123">
        <ele>252.48</ele>
        <time>2011-12-11T13:56:31Z</time>
      </trkpt>
      <trkpt lat="44.034" lon="1.86104">
        <ele>246.72</ele>
        <time>2011-12-11T13:56:45Z</time>
      </trkpt>
      <trkpt lat="44.03402" lon="1.86092">
        <ele>241.91</ele>
        <time>2011-12-11T13:57:11Z</time>
      </trkpt>
      <trkpt lat="44.03409" lon="1.86085">
        <ele>238.54</ele>
        <time>2011-12-11T13:57:38Z</time>
      </trkpt>
      <trkpt lat="44.03412" lon="1.86082">
        <ele>238.06</ele>
        <time>2011-12-11T13:57:49Z</time>
      </trkpt>
      <trkpt lat="44.03417" lon="1.86076">
        <ele>236.62</ele>
        <time>2011-12-11T13:58:03Z</time>
      </trkpt>
      <trkpt lat="44.03418" lon="1.86075">
        <ele>236.14</ele>
        <time>2011-12-11T13:58:04Z</time>
      </trkpt>
      <trkpt lat="44.03431" lon="1.86057">
        <ele>235.18</ele>
        <time>2011-12-11T13:58:15Z</time>
      </trkpt>
      <trkpt lat="44.0344" lon="1.86045">
        <ele>232.78</ele>
        <time>2011-12-11T13:58:33Z</time>
      </trkpt>
      <trkpt lat="44.03448" lon="1.86032">
        <ele>229.89</ele>
        <time>2011-12-11T13:58:46Z</time>
      </trkpt>
      <trkpt lat="44.03449" lon="1.86025">
        <ele>229.41</ele>
        <time>2011-12-11T13:58:57Z</time>
      </trkpt>
      <trkpt lat="44.03453" lon="1.86027">
        <ele>227.97</ele>
        <time>2011-12-11T13:59:31Z</time>
      </trkpt>
      <trkpt lat="44.03453" lon="1.86021">
        <ele>227.49</ele>
        <time>2011-12-11T14:00:09Z</time>
      </trkpt>
      <trkpt lat="44.03454" lon="1.8602">
        <ele>227.49</ele>
        <time>2011-12-11T14:00:10Z</time>
      </trkpt>
      <trkpt lat="44.03462" lon="1.86007">
        <ele>229.89</ele>
        <time>2011-12-11T14:00:24Z</time>
      </trkpt>
      <trkpt lat="44.03472" lon="1.85992">
        <ele>234.7</ele>
        <time>2011-12-11T14:00:35Z</time>
      </trkpt>
      <trkpt lat="44.03473" lon="1.85985">
        <ele>235.66</ele>
        <time>2011-12-11T14:00:48Z</time>
      </trkpt>
      <trkpt lat="44.03474" lon="1.85974">
        <ele>238.06</ele>
        <time>2011-12-11T14:01:01Z</time>
      </trkpt>
      <trkpt lat="44.03476" lon="1.85968">
        <ele>239.51</ele>
        <time>2011-12-11T14:01:16Z</time>
      </trkpt>
      <trkpt lat="44.03473" lon="1.85964">
        <ele>241.43</ele>
        <time>2011-12-11T14:02:02Z</time>
      </trkpt>
      <trkpt lat="44.03474" lon="1.85961">
        <ele>241.43</ele>
        <time>2011-12-11T14:02:36Z</time>
      </trkpt>
      <trkpt lat="44.03474" lon="1.85961">
        <ele>241.43</ele>
        <time>2011-12-11T14:02:47Z</time>
      </trkpt>
      <trkpt lat="44.0347" lon="1.85957">
        <ele>243.35</ele>
        <time>2011-12-11T14:02:59Z</time>
      </trkpt>
      <trkpt lat="44.03471" lon="1.85954">
        <ele>241.91</ele>
        <time>2011-12-11T14:03:30Z</time>
      </trkpt>
      <trkpt lat="44.03476" lon="1.85942">
        <ele>237.58</ele>
        <time>2011-12-11T14:04:32Z</time>
      </trkpt>
      <trkpt lat="44.03476" lon="1.85941">
        <ele>237.1</ele>
        <time>2011-12-11T14:04:33Z</time>
      </trkpt>
      <trkpt lat="44.03471" lon="1.8593">
        <ele>233.74</ele>
        <time>2011-12-11T14:04:45Z</time>
      </trkpt>
      <trkpt lat="44.03468" lon="1.85928">
        <ele>234.22</ele>
        <time>2011-12-11T14:05:12Z</time>
      </trkpt>
      <trkpt lat="44.03465" lon="1.85928">
        <ele>233.74</ele>
        <time>2011-12-11T14:05:15Z</time>
      </trkpt>
      <trkpt lat="44.03452" lon="1.85925">
        <ele>234.22</ele>
        <time>2011-12-11T14:05:27Z</time>
      </trkpt>
      <trkpt lat="44.03427" lon="1.85921">
        <ele>231.33</ele>
        <time>2011-12-11T14:05:42Z</time>
      </trkpt>
      <trkpt lat="44.03411" lon="1.85918">
        <ele>229.89</ele>
        <time>2011-12-11T14:05:54Z</time>
      </trkpt>
      <trkpt lat="44.03408" lon="1.85917">
        <ele>229.41</ele>
        <time>2011-12-11T14:05:59Z</time>
      </trkpt>
      <trkpt lat="44.03396" lon="1.85899">
        <ele>229.41</ele>
        <time>2011-12-11T14:06:13Z</time>
      </trkpt>
      <trkpt lat="44.03396" lon="1.85898">
        <ele>229.41</ele>
        <time>2011-12-11T14:06:16Z</time>
      </trkpt>
      <trkpt lat="44.03396" lon="1.85891">
        <ele>230.37</ele>
        <time>2011-12-11T14:06:29Z</time>
      </trkpt>
      <trkpt lat="44.03398" lon="1.85882">
        <ele>228.93</ele>
        <time>2011-12-11T14:06:40Z</time>
      </trkpt>
      <trkpt lat="44.034" lon="1.85881">
        <ele>228.93</ele>
        <time>2011-12-11T14:06:43Z</time>
      </trkpt>
      <trkpt lat="44.0341" lon="1.85864">
        <ele>227.49</ele>
        <time>2011-12-11T14:06:58Z</time>
      </trkpt>
      <trkpt lat="44.0342" lon="1.85845">
        <ele>229.41</ele>
        <time>2011-12-11T14:07:12Z</time>
      </trkpt>
      <trkpt lat="44.0343" lon="1.8583">
        <ele>229.89</ele>
        <time>2011-12-11T14:07:25Z</time>
      </trkpt>
      <trkpt lat="44.03435" lon="1.85818">
        <ele>228.93</ele>
        <time>2011-12-11T14:07:31Z</time>
      </trkpt>
      <trkpt lat="44.03449" lon="1.85788">
        <ele>226.53</ele>
        <time>2011-12-11T14:07:47Z</time>
      </trkpt>
      <trkpt lat="44.03459" lon="1.85768">
        <ele>225.57</ele>
        <time>2011-12-11T14:08:01Z</time>
      </trkpt>
      <trkpt lat="44.03471" lon="1.85748">
        <ele>226.53</ele>
        <time>2011-12-11T14:08:18Z</time>
      </trkpt>
      <trkpt lat="44.03474" lon="1.85744">
        <ele>227.01</ele>
        <time>2011-12-11T14:08:23Z</time>
      </trkpt>
      <trkpt lat="44.0348" lon="1.85735">
        <ele>227.97</ele>
        <time>2011-12-11T14:08:30Z</time>
      </trkpt>
      <trkpt lat="44.0349" lon="1.85722">
        <ele>230.85</ele>
        <time>2011-12-11T14:08:43Z</time>
      </trkpt>
      <trkpt lat="44.03493" lon="1.85719">
        <ele>230.85</ele>
        <time>2011-12-11T14:08:48Z</time>
      </trkpt>
      <trkpt lat="44.03496" lon="1.85716">
        <ele>231.33</ele>
        <time>2011-12-11T14:08:53Z</time>
      </trkpt>
      <trkpt lat="44.03499" lon="1.85719">
        <ele>232.78</ele>
        <time>2011-12-11T14:08:59Z</time>
      </trkpt>
      <trkpt lat="44.03508" lon="1.85733">
        <ele>234.7</ele>
        <time>2011-12-11T14:09:15Z</time>
      </trkpt>
      <trkpt lat="44.03508" lon="1.85734">
        <ele>235.66</ele>
        <time>2011-12-11T14:09:24Z</time>
      </trkpt>
      <trkpt lat="44.03516" lon="1.85745">
        <ele>235.18</ele>
        <time>2011-12-11T14:09:39Z</time>
      </trkpt>
      <trkpt lat="44.03518" lon="1.85745">
        <ele>234.7</ele>
        <time>2011-12-11T14:09:43Z</time>
      </trkpt>
      <trkpt lat="44.0352" lon="1.85751">
        <ele>233.74</ele>
        <time>2011-12-11T14:09:53Z</time>
      </trkpt>
      <trkpt lat="44.03523" lon="1.85753">
        <ele>233.26</ele>
        <time>2011-12-11T14:10:05Z</time>
      </trkpt>
      <trkpt lat="44.03527" lon="1.85756">
        <ele>231.81</ele>
        <time>2011-12-11T14:10:20Z</time>
      </trkpt>
      <trkpt lat="44.03537" lon="1.85766">
        <ele>232.78</ele>
        <time>2011-12-11T14:10:34Z</time>
      </trkpt>
      <trkpt lat="44.03549" lon="1.85776">
        <ele>232.3</ele>
        <time>2011-12-11T14:10:45Z</time>
      </trkpt>
      <trkpt lat="44.03558" lon="1.85788">
        <ele>229.89</ele>
        <time>2011-12-11T14:10:54Z</time>
      </trkpt>
      <trkpt lat="44.0357" lon="1.85797">
        <ele>227.49</ele>
        <time>2011-12-11T14:11:04Z</time>
      </trkpt>
      <trkpt lat="44.03585" lon="1.85809">
        <ele>225.57</ele>
        <time>2011-12-11T14:11:18Z</time>
      </trkpt>
      <trkpt lat="44.03596" lon="1.85819">
        <ele>226.53</ele>
        <time>2011-12-11T14:11:29Z</time>
      </trkpt>
      <trkpt lat="44.03613" lon="1.85828">
        <ele>225.09</ele>
        <time>2011-12-11T14:11:44Z</time>
      </trkpt>
      <trkpt lat="44.03626" lon="1.8584">
        <ele>227.49</ele>
        <time>2011-12-11T14:11:58Z</time>
      </trkpt>
      <trkpt lat="44.0364" lon="1.85856">
        <ele>229.89</ele>
        <time>2011-12-11T14:12:12Z</time>
      </trkpt>
      <trkpt lat="44.03647" lon="1.85867">
        <ele>230.85</ele>
        <time>2011-12-11T14:12:24Z</time>
      </trkpt>
      <trkpt lat="44.03646" lon="1.8587">
        <ele>230.85</ele>
        <time>2011-12-11T14:12:26Z</time>
      </trkpt>
      <trkpt lat="44.03656" lon="1.85893">
        <ele>228.45</ele>
        <time>2011-12-11T14:12:39Z</time>
      </trkpt>
      <trkpt lat="44.03657" lon="1.8591">
        <ele>227.97</ele>
        <time>2011-12-11T14:12:52Z</time>
      </trkpt>
      <trkpt lat="44.03653" lon="1.85922">
        <ele>230.37</ele>
        <time>2011-12-11T14:13:01Z</time>
      </trkpt>
      <trkpt lat="44.03658" lon="1.8593">
        <ele>232.3</ele>
        <time>2011-12-11T14:13:07Z</time>
      </trkpt>
      <trkpt lat="44.03661" lon="1.85938">
        <ele>233.26</ele>
        <time>2011-12-11T14:13:11Z</time>
      </trkpt>
      <trkpt lat="44.03673" lon="1.85953">
        <ele>235.66</ele>
        <time>2011-12-11T14:13:25Z</time>
      </trkpt>
      <trkpt lat="44.03684" lon="1.85967">
        <ele>238.06</ele>
        <time>2011-12-11T14:13:38Z</time>
      </trkpt>
      <trkpt lat="44.03693" lon="1.85978">
        <ele>239.99</ele>
        <time>2011-12-11T14:13:47Z</time>
      </trkpt>
      <trkpt lat="44.03705" lon="1.85989">
        <ele>244.79</ele>
        <time>2011-12-11T14:14:01Z</time>
      </trkpt>
      <trkpt lat="44.03708" lon="1.85995">
        <ele>246.72</ele>
        <time>2011-12-11T14:14:05Z</time>
      </trkpt>
      <trkpt lat="44.03712" lon="1.85995">
        <ele>247.68</ele>
        <time>2011-12-11T14:14:09Z</time>
      </trkpt>
      <trkpt lat="44.03719" lon="1.85996">
        <ele>250.08</ele>
        <time>2011-12-11T14:14:15Z</time>
      </trkpt>
      <trkpt lat="44.03726" lon="1.86">
        <ele>254.41</ele>
        <time>2011-12-11T14:14:25Z</time>
      </trkpt>
      <trkpt lat="44.03735" lon="1.86">
        <ele>256.33</ele>
        <time>2011-12-11T14:14:33Z</time>
      </trkpt>
      <trkpt lat="44.03738" lon="1.86">
        <ele>257.77</ele>
        <time>2011-12-11T14:14:36Z</time>
      </trkpt>
      <trkpt lat="44.03752" lon="1.85993">
        <ele>262.58</ele>
        <time>2011-12-11T14:14:49Z</time>
      </trkpt>
      <trkpt lat="44.03763" lon="1.8599">
        <ele>265.94</ele>
        <time>2011-12-11T14:14:59Z</time>
      </trkpt>
      <trkpt lat="44.03781" lon="1.8599">
        <ele>264.5</ele>
        <time>2011-12-11T14:15:11Z</time>
      </trkpt>
      <trkpt lat="44.03787" lon="1.85985">
        <ele>270.27</ele>
        <time>2011-12-11T14:15:20Z</time>
      </trkpt>
      <trkpt lat="44.03791" lon="1.85981">
        <ele>279.4</ele>
        <time>2011-12-11T14:15:30Z</time>
      </trkpt>
      <trkpt lat="44.03797" lon="1.85977">
        <ele>287.57</ele>
        <time>2011-12-11T14:15:40Z</time>
      </trkpt>
      <trkpt lat="44.03809" lon="1.85971">
        <ele>293.34</ele>
        <time>2011-12-11T14:15:53Z</time>
      </trkpt>
      <trkpt lat="44.03824" lon="1.85959">
        <ele>290.46</ele>
        <time>2011-12-11T14:16:04Z</time>
      </trkpt>
      <trkpt lat="44.03837" lon="1.85952">
        <ele>292.86</ele>
        <time>2011-12-11T14:16:18Z</time>
      </trkpt>
      <trkpt lat="44.03846" lon="1.85949">
        <ele>294.3</ele>
        <time>2011-12-11T14:16:28Z</time>
      </trkpt>
      <trkpt lat="44.03856" lon="1.85945">
        <ele>300.07</ele>
        <time>2011-12-11T14:16:41Z</time>
      </trkpt>
      <trkpt lat="44.03867" lon="1.8594">
        <ele>304.88</ele>
        <time>2011-12-11T14:16:55Z</time>
      </trkpt>
      <trkpt lat="44.03881" lon="1.85933">
        <ele>298.15</ele>
        <time>2011-12-11T14:17:05Z</time>
      </trkpt>
      <trkpt lat="44.03905" lon="1.85934">
        <ele>283.73</ele>
        <time>2011-12-11T14:17:20Z</time>
      </trkpt>
      <trkpt lat="44.03922" lon="1.85929">
        <ele>278.44</ele>
        <time>2011-12-11T14:17:34Z</time>
      </trkpt>
      <trkpt lat="44.03939" lon="1.85925">
        <ele>270.27</ele>
        <time>2011-12-11T14:17:48Z</time>
      </trkpt>
      <trkpt lat="44.03965" lon="1.85929">
        <ele>255.85</ele>
        <time>2011-12-11T14:18:06Z</time>
      </trkpt>
      <trkpt lat="44.03977" lon="1.85924">
        <ele>254.89</ele>
        <time>2011-12-11T14:18:16Z</time>
      </trkpt>
      <trkpt lat="44.03989" lon="1.85919">
        <ele>255.85</ele>
        <time>2011-12-11T14:18:32Z</time>
      </trkpt>
      <trkpt lat="44.03999" lon="1.85915">
        <ele>258.73</ele>
        <time>2011-12-11T14:18:45Z</time>
      </trkpt>
      <trkpt lat="44.04007" lon="1.85918">
        <ele>260.17</ele>
        <time>2011-12-11T14:18:54Z</time>
      </trkpt>
      <trkpt lat="44.04013" lon="1.85914">
        <ele>262.58</ele>
        <time>2011-12-11T14:19:05Z</time>
      </trkpt>
      <trkpt lat="44.04023" lon="1.85899">
        <ele>266.9</ele>
        <time>2011-12-11T14:19:17Z</time>
      </trkpt>
      <trkpt lat="44.04029" lon="1.85904">
        <ele>269.79</ele>
        <time>2011-12-11T14:19:25Z</time>
      </trkpt>
      <trkpt lat="44.04038" lon="1.8591">
        <ele>272.19</ele>
        <time>2011-12-11T14:19:36Z</time>
      </trkpt>
      <trkpt lat="44.04046" lon="1.85907">
        <ele>280.36</ele>
        <time>2011-12-11T14:19:49Z</time>
      </trkpt>
      <trkpt lat="44.04052" lon="1.85906">
        <ele>284.21</ele>
        <time>2011-12-11T14:20:01Z</time>
      </trkpt>
      <trkpt lat="44.04058" lon="1.85906">
        <ele>290.94</ele>
        <time>2011-12-11T14:20:20Z</time>
      </trkpt>
      <trkpt lat="44.04068" lon="1.85897">
        <ele>291.42</ele>
        <time>2011-12-11T14:20:33Z</time>
      </trkpt>
      <trkpt lat="44.0408" lon="1.859">
        <ele>290.94</ele>
        <time>2011-12-11T14:20:45Z</time>
      </trkpt>
      <trkpt lat="44.04084" lon="1.85899">
        <ele>290.94</ele>
        <time>2011-12-11T14:20:48Z</time>
      </trkpt>
      <trkpt lat="44.04095" lon="1.85894">
        <ele>292.86</ele>
        <time>2011-12-11T14:20:59Z</time>
      </trkpt>
      <trkpt lat="44.04111" lon="1.85881">
        <ele>283.73</ele>
        <time>2011-12-11T14:21:09Z</time>
      </trkpt>
      <trkpt lat="44.04117" lon="1.85889">
        <ele>277.48</ele>
        <time>2011-12-11T14:21:42Z</time>
      </trkpt>
      <trkpt lat="44.04124" lon="1.85889">
        <ele>277.48</ele>
        <time>2011-12-11T14:21:53Z</time>
      </trkpt>
      <trkpt lat="44.04129" lon="1.8589">
        <ele>278.44</ele>
        <time>2011-12-11T14:21:59Z</time>
      </trkpt>
      <trkpt lat="44.04135" lon="1.8589">
        <ele>278.92</ele>
        <time>2011-12-11T14:22:11Z</time>
      </trkpt>
      <trkpt lat="44.04137" lon="1.85892">
        <ele>277.48</ele>
        <time>2011-12-11T14:22:37Z</time>
      </trkpt>
      <trkpt lat="44.04137" lon="1.85892">
        <ele>277.48</ele>
        <time>2011-12-11T14:23:14Z</time>
      </trkpt>
      <trkpt lat="44.04139" lon="1.85892">
        <ele>276.52</ele>
        <time>2011-12-11T14:25:17Z</time>
      </trkpt>
      <trkpt lat="44.04143" lon="1.85901">
        <ele>271.71</ele>
        <time>2011-12-11T14:27:09Z</time>
      </trkpt>
      <trkpt lat="44.04143" lon="1.85909">
        <ele>272.67</ele>
        <time>2011-12-11T14:27:19Z</time>
      </trkpt>
      <trkpt lat="44.04143" lon="1.8592">
        <ele>272.67</ele>
        <time>2011-12-11T14:27:29Z</time>
      </trkpt>
      <trkpt lat="44.04138" lon="1.85927">
        <ele>273.63</ele>
        <time>2011-12-11T14:27:39Z</time>
      </trkpt>
      <trkpt lat="44.04131" lon="1.85931">
        <ele>274.59</ele>
        <time>2011-12-11T14:27:48Z</time>
      </trkpt>
      <trkpt lat="44.0412" lon="1.85943">
        <ele>271.23</ele>
        <time>2011-12-11T14:28:01Z</time>
      </trkpt>
      <trkpt lat="44.04111" lon="1.8594">
        <ele>266.42</ele>
        <time>2011-12-11T14:28:16Z</time>
      </trkpt>
      <trkpt lat="44.04103" lon="1.85931">
        <ele>265.94</ele>
        <time>2011-12-11T14:28:30Z</time>
      </trkpt>
      <trkpt lat="44.04104" lon="1.85943">
        <ele>266.42</ele>
        <time>2011-12-11T14:28:41Z</time>
      </trkpt>
      <trkpt lat="44.04105" lon="1.8595">
        <ele>266.9</ele>
        <time>2011-12-11T14:28:46Z</time>
      </trkpt>
      <trkpt lat="44.04106" lon="1.85959">
        <ele>267.38</ele>
        <time>2011-12-11T14:28:58Z</time>
      </trkpt>
      <trkpt lat="44.04105" lon="1.85961">
        <ele>267.86</ele>
        <time>2011-12-11T14:29:02Z</time>
      </trkpt>
      <trkpt lat="44.0411" lon="1.85972">
        <ele>269.79</ele>
        <time>2011-12-11T14:29:09Z</time>
      </trkpt>
      <trkpt lat="44.04119" lon="1.85996">
        <ele>268.35</ele>
        <time>2011-12-11T14:29:23Z</time>
      </trkpt>
      <trkpt lat="44.04126" lon="1.86011">
        <ele>268.35</ele>
        <time>2011-12-11T14:29:36Z</time>
      </trkpt>
      <trkpt lat="44.04133" lon="1.86022">
        <ele>266.42</ele>
        <time>2011-12-11T14:29:47Z</time>
      </trkpt>
      <trkpt lat="44.04138" lon="1.86026">
        <ele>265.46</ele>
        <time>2011-12-11T14:29:56Z</time>
      </trkpt>
      <trkpt lat="44.04138" lon="1.86041">
        <ele>258.73</ele>
        <time>2011-12-11T14:30:11Z</time>
      </trkpt>
      <trkpt lat="44.04137" lon="1.86056">
        <ele>254.89</ele>
        <time>2011-12-11T14:30:24Z</time>
      </trkpt>
      <trkpt lat="44.04135" lon="1.86063">
        <ele>253.93</ele>
        <time>2011-12-11T14:30:30Z</time>
      </trkpt>
      <trkpt lat="44.04132" lon="1.8607">
        <ele>253.44</ele>
        <time>2011-12-11T14:30:35Z</time>
      </trkpt>
      <trkpt lat="44.04129" lon="1.86091">
        <ele>250.08</ele>
        <time>2011-12-11T14:30:44Z</time>
      </trkpt>
      <trkpt lat="44.04127" lon="1.86097">
        <ele>249.12</ele>
        <time>2011-12-11T14:30:48Z</time>
      </trkpt>
      <trkpt lat="44.04126" lon="1.86105">
        <ele>248.16</ele>
        <time>2011-12-11T14:30:53Z</time>
      </trkpt>
      <trkpt lat="44.04125" lon="1.8613">
        <ele>241.91</ele>
        <time>2011-12-11T14:31:09Z</time>
      </trkpt>
      <trkpt lat="44.04121" lon="1.86146">
        <ele>239.51</ele>
        <time>2011-12-11T14:31:22Z</time>
      </trkpt>
      <trkpt lat="44.04116" lon="1.86166">
        <ele>236.62</ele>
        <time>2011-12-11T14:31:37Z</time>
      </trkpt>
      <trkpt lat="44.04113" lon="1.8618">
        <ele>235.66</ele>
        <time>2011-12-11T14:31:48Z</time>
      </trkpt>
      <trkpt lat="44.04113" lon="1.86184">
        <ele>234.22</ele>
        <time>2011-12-11T14:31:50Z</time>
      </trkpt>
      <trkpt lat="44.04116" lon="1.86191">
        <ele>232.3</ele>
        <time>2011-12-11T14:31:54Z</time>
      </trkpt>
      <trkpt lat="44.04121" lon="1.86199">
        <ele>229.41</ele>
        <time>2011-12-11T14:31:58Z</time>
      </trkpt>
      <trkpt lat="44.04133" lon="1.86204">
        <ele>228.45</ele>
        <time>2011-12-11T14:32:08Z</time>
      </trkpt>
      <trkpt lat="44.0415" lon="1.86213">
        <ele>232.78</ele>
        <time>2011-12-11T14:32:25Z</time>
      </trkpt>
      <trkpt lat="44.04169" lon="1.86219">
        <ele>235.18</ele>
        <time>2011-12-11T14:32:40Z</time>
      </trkpt>
      <trkpt lat="44.04191" lon="1.86225">
        <ele>235.66</ele>
        <time>2011-12-11T14:32:56Z</time>
      </trkpt>
      <trkpt lat="44.04207" lon="1.86225">
        <ele>236.14</ele>
        <time>2011-12-11T14:33:09Z</time>
      </trkpt>
      <trkpt lat="44.04215" lon="1.86225">
        <ele>236.14</ele>
        <time>2011-12-11T14:33:15Z</time>
      </trkpt>
      <trkpt lat="44.04237" lon="1.86225">
        <ele>235.18</ele>
        <time>2011-12-11T14:33:32Z</time>
      </trkpt>
      <trkpt lat="44.04258" lon="1.8623">
        <ele>235.18</ele>
        <time>2011-12-11T14:33:49Z</time>
      </trkpt>
      <trkpt lat="44.04267" lon="1.86233">
        <ele>235.66</ele>
        <time>2011-12-11T14:33:57Z</time>
      </trkpt>
      <trkpt lat="44.04274" lon="1.86232">
        <ele>235.66</ele>
        <time>2011-12-11T14:34:02Z</time>
      </trkpt>
      <trkpt lat="44.04295" lon="1.8624">
        <ele>237.1</ele>
        <time>2011-12-11T14:34:21Z</time>
      </trkpt>
      <trkpt lat="44.043" lon="1.86241">
        <ele>237.1</ele>
        <time>2011-12-11T14:34:25Z</time>
      </trkpt>
      <trkpt lat="44.04317" lon="1.86249">
        <ele>238.54</ele>
        <time>2011-12-11T14:34:38Z</time>
      </trkpt>
      <trkpt lat="44.04325" lon="1.86249">
        <ele>238.06</ele>
        <time>2011-12-11T14:34:45Z</time>
      </trkpt>
      <trkpt lat="44.04344" lon="1.86251">
        <ele>237.1</ele>
        <time>2011-12-11T14:34:59Z</time>
      </trkpt>
      <trkpt lat="44.04348" lon="1.86252">
        <ele>237.1</ele>
        <time>2011-12-11T14:35:02Z</time>
      </trkpt>
      <trkpt lat="44.04364" lon="1.86257">
        <ele>234.7</ele>
        <time>2011-12-11T14:35:14Z</time>
      </trkpt>
      <trkpt lat="44.0438" lon="1.86262">
        <ele>235.18</ele>
        <time>2011-12-11T14:35:28Z</time>
      </trkpt>
      <trkpt lat="44.04395" lon="1.86268">
        <ele>235.66</ele>
        <time>2011-12-11T14:35:40Z</time>
      </trkpt>
      <trkpt lat="44.04407" lon="1.86272">
        <ele>235.18</ele>
        <time>2011-12-11T14:35:50Z</time>
      </trkpt>
      <trkpt lat="44.04421" lon="1.86277">
        <ele>235.18</ele>
        <time>2011-12-11T14:36:02Z</time>
      </trkpt>
      <trkpt lat="44.04424" lon="1.8628">
        <ele>235.66</ele>
        <time>2011-12-11T14:36:04Z</time>
      </trkpt>
      <trkpt lat="44.04426" lon="1.86283">
        <ele>235.66</ele>
        <time>2011-12-11T14:36:06Z</time>
      </trkpt>
      <trkpt lat="44.0443" lon="1.86287">
        <ele>235.66</ele>
        <time>2011-12-11T14:36:11Z</time>
      </trkpt>
      <trkpt lat="44.04441" lon="1.86288">
        <ele>236.62</ele>
        <time>2011-12-11T14:36:24Z</time>
      </trkpt>
      <trkpt lat="44.04443" lon="1.86295">
        <ele>233.26</ele>
        <time>2011-12-11T14:36:36Z</time>
      </trkpt>
      <trkpt lat="44.04442" lon="1.86303">
        <ele>231.81</ele>
        <time>2011-12-11T14:36:44Z</time>
      </trkpt>
      <trkpt lat="44.04436" lon="1.8632">
        <ele>226.05</ele>
        <time>2011-12-11T14:36:58Z</time>
      </trkpt>
      <trkpt lat="44.04434" lon="1.86323">
        <ele>225.57</ele>
        <time>2011-12-11T14:37:01Z</time>
      </trkpt>
      <trkpt lat="44.04427" lon="1.86334">
        <ele>224.61</ele>
        <time>2011-12-11T14:37:09Z</time>
      </trkpt>
      <trkpt lat="44.04428" lon="1.86359">
        <ele>228.93</ele>
        <time>2011-12-11T14:37:25Z</time>
      </trkpt>
      <trkpt lat="44.04427" lon="1.86369">
        <ele>230.37</ele>
        <time>2011-12-11T14:37:33Z</time>
      </trkpt>
      <trkpt lat="44.04421" lon="1.86383">
        <ele>232.78</ele>
        <time>2011-12-11T14:37:48Z</time>
      </trkpt>
      <trkpt lat="44.04417" lon="1.86392">
        <ele>235.66</ele>
        <time>2011-12-11T14:37:59Z</time>
      </trkpt>
      <trkpt lat="44.04416" lon="1.86406">
        <ele>238.54</ele>
        <time>2011-12-11T14:38:09Z</time>
      </trkpt>
      <trkpt lat="44.04421" lon="1.8642">
        <ele>241.91</ele>
        <time>2011-12-11T14:38:21Z</time>
      </trkpt>
      <trkpt lat="44.04428" lon="1.86429">
        <ele>242.87</ele>
        <time>2011-12-11T14:38:32Z</time>
      </trkpt>
      <trkpt lat="44.04435" lon="1.86441">
        <ele>244.31</ele>
        <time>2011-12-11T14:38:45Z</time>
      </trkpt>
      <trkpt lat="44.04444" lon="1.86448">
        <ele>247.2</ele>
        <time>2011-12-11T14:38:56Z</time>
      </trkpt>
      <trkpt lat="44.04456" lon="1.86452">
        <ele>249.12</ele>
        <time>2011-12-11T14:39:07Z</time>
      </trkpt>
      <trkpt lat="44.04468" lon="1.86462">
        <ele>246.72</ele>
        <time>2011-12-11T14:39:19Z</time>
      </trkpt>
      <trkpt lat="44.0448" lon="1.86473">
        <ele>245.27</ele>
        <time>2011-12-11T14:39:33Z</time>
      </trkpt>
      <trkpt lat="44.04492" lon="1.86484">
        <ele>245.75</ele>
        <time>2011-12-11T14:39:48Z</time>
      </trkpt>
      <trkpt lat="44.04502" lon="1.86497">
        <ele>245.75</ele>
        <time>2011-12-11T14:40:04Z</time>
      </trkpt>
      <trkpt lat="44.04507" lon="1.86508">
        <ele>250.08</ele>
        <time>2011-12-11T14:40:18Z</time>
      </trkpt>
      <trkpt lat="44.04509" lon="1.86519">
        <ele>254.41</ele>
        <time>2011-12-11T14:40:28Z</time>
      </trkpt>
      <trkpt lat="44.04511" lon="1.86536">
        <ele>258.25</ele>
        <time>2011-12-11T14:40:42Z</time>
      </trkpt>
      <trkpt lat="44.04518" lon="1.86551">
        <ele>258.25</ele>
        <time>2011-12-11T14:40:54Z</time>
      </trkpt>
      <trkpt lat="44.04527" lon="1.86554">
        <ele>252.96</ele>
        <time>2011-12-11T14:41:07Z</time>
      </trkpt>
      <trkpt lat="44.04531" lon="1.86556">
        <ele>252</ele>
        <time>2011-12-11T14:41:11Z</time>
      </trkpt>
      <trkpt lat="44.04538" lon="1.86557">
        <ele>250.56</ele>
        <time>2011-12-11T14:41:22Z</time>
      </trkpt>
      <trkpt lat="44.04545" lon="1.86563">
        <ele>250.08</ele>
        <time>2011-12-11T14:41:35Z</time>
      </trkpt>
      <trkpt lat="44.04547" lon="1.86566">
        <ele>250.08</ele>
        <time>2011-12-11T14:41:38Z</time>
      </trkpt>
      <trkpt lat="44.0456" lon="1.86577">
        <ele>251.04</ele>
        <time>2011-12-11T14:41:51Z</time>
      </trkpt>
      <trkpt lat="44.04572" lon="1.86578">
        <ele>251.04</ele>
        <time>2011-12-11T14:42:03Z</time>
      </trkpt>
      <trkpt lat="44.04587" lon="1.86582">
        <ele>251.52</ele>
        <time>2011-12-11T14:42:16Z</time>
      </trkpt>
      <trkpt lat="44.04597" lon="1.86587">
        <ele>252.48</ele>
        <time>2011-12-11T14:42:27Z</time>
      </trkpt>
      <trkpt lat="44.0461" lon="1.86595">
        <ele>251.04</ele>
        <time>2011-12-11T14:42:39Z</time>
      </trkpt>
      <trkpt lat="44.04619" lon="1.86599">
        <ele>252</ele>
        <time>2011-12-11T14:42:47Z</time>
      </trkpt>
      <trkpt lat="44.04626" lon="1.86605">
        <ele>252.48</ele>
        <time>2011-12-11T14:42:53Z</time>
      </trkpt>
      <trkpt lat="44.04635" lon="1.86613">
        <ele>253.44</ele>
        <time>2011-12-11T14:43:05Z</time>
      </trkpt>
      <trkpt lat="44.04648" lon="1.86625">
        <ele>254.41</ele>
        <time>2011-12-11T14:43:18Z</time>
      </trkpt>
      <trkpt lat="44.04659" lon="1.86636">
        <ele>254.41</ele>
        <time>2011-12-11T14:43:31Z</time>
      </trkpt>
      <trkpt lat="44.04663" lon="1.86648">
        <ele>255.85</ele>
        <time>2011-12-11T14:43:45Z</time>
      </trkpt>
      <trkpt lat="44.04665" lon="1.86662">
        <ele>256.33</ele>
        <time>2011-12-11T14:43:57Z</time>
      </trkpt>
      <trkpt lat="44.04666" lon="1.86668">
        <ele>257.29</ele>
        <time>2011-12-11T14:44:02Z</time>
      </trkpt>
      <trkpt lat="44.04669" lon="1.86683">
        <ele>259.69</ele>
        <time>2011-12-11T14:44:13Z</time>
      </trkpt>
      <trkpt lat="44.04676" lon="1.86701">
        <ele>262.58</ele>
        <time>2011-12-11T14:44:24Z</time>
      </trkpt>
      <trkpt lat="44.04689" lon="1.86704">
        <ele>266.42</ele>
        <time>2011-12-11T14:44:36Z</time>
      </trkpt>
      <trkpt lat="44.04703" lon="1.86702">
        <ele>271.23</ele>
        <time>2011-12-11T14:44:51Z</time>
      </trkpt>
      <trkpt lat="44.04716" lon="1.8669">
        <ele>276.04</ele>
        <time>2011-12-11T14:45:06Z</time>
      </trkpt>
      <trkpt lat="44.04723" lon="1.86677">
        <ele>279.4</ele>
        <time>2011-12-11T14:45:17Z</time>
      </trkpt>
      <trkpt lat="44.04729" lon="1.86668">
        <ele>280.84</ele>
        <time>2011-12-11T14:45:24Z</time>
      </trkpt>
      <trkpt lat="44.04733" lon="1.86666">
        <ele>281.32</ele>
        <time>2011-12-11T14:45:28Z</time>
      </trkpt>
      <trkpt lat="44.04743" lon="1.86666">
        <ele>280.36</ele>
        <time>2011-12-11T14:45:40Z</time>
      </trkpt>
      <trkpt lat="44.04744" lon="1.86666">
        <ele>280.36</ele>
        <time>2011-12-11T14:45:41Z</time>
      </trkpt>
      <trkpt lat="44.04744" lon="1.86669">
        <ele>279.88</ele>
        <time>2011-12-11T14:45:54Z</time>
      </trkpt>
      <trkpt lat="44.04748" lon="1.86678">
        <ele>280.84</ele>
        <time>2011-12-11T14:46:16Z</time>
      </trkpt>
      <trkpt lat="44.04751" lon="1.86687">
        <ele>281.32</ele>
        <time>2011-12-11T14:46:23Z</time>
      </trkpt>
      <trkpt lat="44.04753" lon="1.86691">
        <ele>280.84</ele>
        <time>2011-12-11T14:46:27Z</time>
      </trkpt>
      <trkpt lat="44.04757" lon="1.86703">
        <ele>280.36</ele>
        <time>2011-12-11T14:46:37Z</time>
      </trkpt>
      <trkpt lat="44.04762" lon="1.86715">
        <ele>280.84</ele>
        <time>2011-12-11T14:46:48Z</time>
      </trkpt>
      <trkpt lat="44.0477" lon="1.86736">
        <ele>279.4</ele>
        <time>2011-12-11T14:47:02Z</time>
      </trkpt>
      <trkpt lat="44.04776" lon="1.86746">
        <ele>280.84</ele>
        <time>2011-12-11T14:47:17Z</time>
      </trkpt>
      <trkpt lat="44.04781" lon="1.86757">
        <ele>285.17</ele>
        <time>2011-12-11T14:47:30Z</time>
      </trkpt>
      <trkpt lat="44.04783" lon="1.86765">
        <ele>287.57</ele>
        <time>2011-12-11T14:47:47Z</time>
      </trkpt>
      <trkpt lat="44.04785" lon="1.86779">
        <ele>286.13</ele>
        <time>2011-12-11T14:47:59Z</time>
      </trkpt>
      <trkpt lat="44.04789" lon="1.86801">
        <ele>279.4</ele>
        <time>2011-12-11T14:48:14Z</time>
      </trkpt>
      <trkpt lat="44.04787" lon="1.86818">
        <ele>281.32</ele>
        <time>2011-12-11T14:48:29Z</time>
      </trkpt>
      <trkpt lat="44.04785" lon="1.86833">
        <ele>287.57</ele>
        <time>2011-12-11T14:48:44Z</time>
      </trkpt>
      <trkpt lat="44.04784" lon="1.86837">
        <ele>289.01</ele>
        <time>2011-12-11T14:48:48Z</time>
      </trkpt>
      <trkpt lat="44.04782" lon="1.86853">
        <ele>292.38</ele>
        <time>2011-12-11T14:49:01Z</time>
      </trkpt>
      <trkpt lat="44.04779" lon="1.86867">
        <ele>296.22</ele>
        <time>2011-12-11T14:49:13Z</time>
      </trkpt>
      <trkpt lat="44.04777" lon="1.86879">
        <ele>298.63</ele>
        <time>2011-12-11T14:49:26Z</time>
      </trkpt>
      <trkpt lat="44.04777" lon="1.8688">
        <ele>298.63</ele>
        <time>2011-12-11T14:49:27Z</time>
      </trkpt>
      <trkpt lat="44.04776" lon="1.86886">
        <ele>299.11</ele>
        <time>2011-12-11T14:49:30Z</time>
      </trkpt>
      <trkpt lat="44.04771" lon="1.86904">
        <ele>299.59</ele>
        <time>2011-12-11T14:49:42Z</time>
      </trkpt>
      <trkpt lat="44.04769" lon="1.86908">
        <ele>300.07</ele>
        <time>2011-12-11T14:49:45Z</time>
      </trkpt>
      <trkpt lat="44.04764" lon="1.86928">
        <ele>302.95</ele>
        <time>2011-12-11T14:50:00Z</time>
      </trkpt>
      <trkpt lat="44.04759" lon="1.86945">
        <ele>305.84</ele>
        <time>2011-12-11T14:50:12Z</time>
      </trkpt>
      <trkpt lat="44.04755" lon="1.86951">
        <ele>307.28</ele>
        <time>2011-12-11T14:50:18Z</time>
      </trkpt>
      <trkpt lat="44.04746" lon="1.86966">
        <ele>310.64</ele>
        <time>2011-12-11T14:50:32Z</time>
      </trkpt>
      <trkpt lat="44.04738" lon="1.86985">
        <ele>314.97</ele>
        <time>2011-12-11T14:50:46Z</time>
      </trkpt>
      <trkpt lat="44.04737" lon="1.87006">
        <ele>313.05</ele>
        <time>2011-12-11T14:50:58Z</time>
      </trkpt>
      <trkpt lat="44.04736" lon="1.87024">
        <ele>314.97</ele>
        <time>2011-12-11T14:51:10Z</time>
      </trkpt>
      <trkpt lat="44.04735" lon="1.87043">
        <ele>314.01</ele>
        <time>2011-12-11T14:51:20Z</time>
      </trkpt>
      <trkpt lat="44.04731" lon="1.87069">
        <ele>314.97</ele>
        <time>2011-12-11T14:51:35Z</time>
      </trkpt>
      <trkpt lat="44.04729" lon="1.87091">
        <ele>317.85</ele>
        <time>2011-12-11T14:51:50Z</time>
      </trkpt>
      <trkpt lat="44.04726" lon="1.87105">
        <ele>320.74</ele>
        <time>2011-12-11T14:52:01Z</time>
      </trkpt>
      <trkpt lat="44.04722" lon="1.87125">
        <ele>323.62</ele>
        <time>2011-12-11T14:52:14Z</time>
      </trkpt>
      <trkpt lat="44.04716" lon="1.87152">
        <ele>317.37</ele>
        <time>2011-12-11T14:52:27Z</time>
      </trkpt>
      <trkpt lat="44.0471" lon="1.87171">
        <ele>315.45</ele>
        <time>2011-12-11T14:52:40Z</time>
      </trkpt>
      <trkpt lat="44.04705" lon="1.87202">
        <ele>309.2</ele>
        <time>2011-12-11T14:52:56Z</time>
      </trkpt>
      <trkpt lat="44.04705" lon="1.87235">
        <ele>300.07</ele>
        <time>2011-12-11T14:53:11Z</time>
      </trkpt>
      <trkpt lat="44.04702" lon="1.87256">
        <ele>296.7</ele>
        <time>2011-12-11T14:53:23Z</time>
      </trkpt>
      <trkpt lat="44.04696" lon="1.87276">
        <ele>296.22</ele>
        <time>2011-12-11T14:53:36Z</time>
      </trkpt>
      <trkpt lat="44.04694" lon="1.87284">
        <ele>296.22</ele>
        <time>2011-12-11T14:53:41Z</time>
      </trkpt>
      <trkpt lat="44.04689" lon="1.87296">
        <ele>297.67</ele>
        <time>2011-12-11T14:53:52Z</time>
      </trkpt>
      <trkpt lat="44.04689" lon="1.87311">
        <ele>294.78</ele>
        <time>2011-12-11T14:54:05Z</time>
      </trkpt>
      <trkpt lat="44.04689" lon="1.87311">
        <ele>294.78</ele>
        <time>2011-12-11T14:54:06Z</time>
      </trkpt>
      <trkpt lat="44.04695" lon="1.87317">
        <ele>292.86</ele>
        <time>2011-12-11T14:54:20Z</time>
      </trkpt>
      <trkpt lat="44.04695" lon="1.87318">
        <ele>292.38</ele>
        <time>2011-12-11T14:54:49Z</time>
      </trkpt>
      <trkpt lat="44.04694" lon="1.87319">
        <ele>292.38</ele>
        <time>2011-12-11T14:54:50Z</time>
      </trkpt>
      <trkpt lat="44.04689" lon="1.87329">
        <ele>292.86</ele>
        <time>2011-12-11T14:55:00Z</time>
      </trkpt>
      <trkpt lat="44.04682" lon="1.87345">
        <ele>295.74</ele>
        <time>2011-12-11T14:55:16Z</time>
      </trkpt>
      <trkpt lat="44.04682" lon="1.87347">
        <ele>295.74</ele>
        <time>2011-12-11T14:55:17Z</time>
      </trkpt>
      <trkpt lat="44.04676" lon="1.87373">
        <ele>291.9</ele>
        <time>2011-12-11T14:55:31Z</time>
      </trkpt>
      <trkpt lat="44.04668" lon="1.87398">
        <ele>290.94</ele>
        <time>2011-12-11T14:55:47Z</time>
      </trkpt>
      <trkpt lat="44.04662" lon="1.87424">
        <ele>290.46</ele>
        <time>2011-12-11T14:56:02Z</time>
      </trkpt>
      <trkpt lat="44.0466" lon="1.87433">
        <ele>290.46</ele>
        <time>2011-12-11T14:56:08Z</time>
      </trkpt>
      <trkpt lat="44.04649" lon="1.87456">
        <ele>295.74</ele>
        <time>2011-12-11T14:56:24Z</time>
      </trkpt>
      <trkpt lat="44.04637" lon="1.87477">
        <ele>298.63</ele>
        <time>2011-12-11T14:56:39Z</time>
      </trkpt>
      <trkpt lat="44.04628" lon="1.87499">
        <ele>298.15</ele>
        <time>2011-12-11T14:56:54Z</time>
      </trkpt>
      <trkpt lat="44.04618" lon="1.87522">
        <ele>297.18</ele>
        <time>2011-12-11T14:57:08Z</time>
      </trkpt>
      <trkpt lat="44.04608" lon="1.87543">
        <ele>299.11</ele>
        <time>2011-12-11T14:57:23Z</time>
      </trkpt>
      <trkpt lat="44.04601" lon="1.87569">
        <ele>296.22</ele>
        <time>2011-12-11T14:57:37Z</time>
      </trkpt>
      <trkpt lat="44.04592" lon="1.87596">
        <ele>292.38</ele>
        <time>2011-12-11T14:57:55Z</time>
      </trkpt>
      <trkpt lat="44.0458" lon="1.87622">
        <ele>291.42</ele>
        <time>2011-12-11T14:58:11Z</time>
      </trkpt>
      <trkpt lat="44.0457" lon="1.87648">
        <ele>289.49</ele>
        <time>2011-12-11T14:58:28Z</time>
      </trkpt>
      <trkpt lat="44.0456" lon="1.87671">
        <ele>288.53</ele>
        <time>2011-12-11T14:58:43Z</time>
      </trkpt>
      <trkpt lat="44.04549" lon="1.87696">
        <ele>288.05</ele>
        <time>2011-12-11T14:58:59Z</time>
      </trkpt>
      <trkpt lat="44.04541" lon="1.87716">
        <ele>288.05</ele>
        <time>2011-12-11T14:59:13Z</time>
      </trkpt>
      <trkpt lat="44.0453" lon="1.87739">
        <ele>289.49</ele>
        <time>2011-12-11T14:59:29Z</time>
      </trkpt>
      <trkpt lat="44.04519" lon="1.87759">
        <ele>291.42</ele>
        <time>2011-12-11T14:59:44Z</time>
      </trkpt>
      <trkpt lat="44.0451" lon="1.87783">
        <ele>290.46</ele>
        <time>2011-12-11T14:59:59Z</time>
      </trkpt>
      <trkpt lat="44.04498" lon="1.87805">
        <ele>291.42</ele>
        <time>2011-12-11T15:00:15Z</time>
      </trkpt>
      <trkpt lat="44.04492" lon="1.8782">
        <ele>291.9</ele>
        <time>2011-12-11T15:00:29Z</time>
      </trkpt>
      <trkpt lat="44.0449" lon="1.87826">
        <ele>291.42</ele>
        <time>2011-12-11T15:00:43Z</time>
      </trkpt>
      <trkpt lat="44.0449" lon="1.87833">
        <ele>292.38</ele>
        <time>2011-12-11T15:00:58Z</time>
      </trkpt>
      <trkpt lat="44.0449" lon="1.87833">
        <ele>292.38</ele>
        <time>2011-12-11T15:01:01Z</time>
      </trkpt>
      <trkpt lat="44.04479" lon="1.8785">
        <ele>294.3</ele>
        <time>2011-12-11T15:01:16Z</time>
      </trkpt>
      <trkpt lat="44.04466" lon="1.87867">
        <ele>294.3</ele>
        <time>2011-12-11T15:01:31Z</time>
      </trkpt>
      <trkpt lat="44.04452" lon="1.87884">
        <ele>292.86</ele>
        <time>2011-12-11T15:01:47Z</time>
      </trkpt>
      <trkpt lat="44.04441" lon="1.87895">
        <ele>292.38</ele>
        <time>2011-12-11T15:01:58Z</time>
      </trkpt>
      <trkpt lat="44.04429" lon="1.8791">
        <ele>292.38</ele>
        <time>2011-12-11T15:02:11Z</time>
      </trkpt>
      <trkpt lat="44.04418" lon="1.87922">
        <ele>294.3</ele>
        <time>2011-12-11T15:02:24Z</time>
      </trkpt>
      <trkpt lat="44.04415" lon="1.87926">
        <ele>293.82</ele>
        <time>2011-12-11T15:02:29Z</time>
      </trkpt>
      <trkpt lat="44.04401" lon="1.87925">
        <ele>294.3</ele>
        <time>2011-12-11T15:02:45Z</time>
      </trkpt>
      <trkpt lat="44.044" lon="1.87925">
        <ele>294.3</ele>
        <time>2011-12-11T15:02:46Z</time>
      </trkpt>
      <trkpt lat="44.04384" lon="1.87921">
        <ele>293.34</ele>
        <time>2011-12-11T15:03:00Z</time>
      </trkpt>
      <trkpt lat="44.04371" lon="1.87918">
        <ele>290.94</ele>
        <time>2011-12-11T15:03:13Z</time>
      </trkpt>
      <trkpt lat="44.04361" lon="1.87915">
        <ele>289.01</ele>
        <time>2011-12-11T15:03:24Z</time>
      </trkpt>
      <trkpt lat="44.0436" lon="1.87915">
        <ele>289.01</ele>
        <time>2011-12-11T15:03:55Z</time>
      </trkpt>
      <trkpt lat="44.04359" lon="1.87915">
        <ele>289.49</ele>
        <time>2011-12-11T15:04:40Z</time>
      </trkpt>
      <trkpt lat="44.04358" lon="1.87917">
        <ele>290.46</ele>
        <time>2011-12-11T15:04:54Z</time>
      </trkpt>
      <trkpt lat="44.04355" lon="1.87912">
        <ele>291.9</ele>
        <time>2011-12-11T15:05:29Z</time>
      </trkpt>
      <trkpt lat="44.04353" lon="1.87911">
        <ele>293.34</ele>
        <time>2011-12-11T15:05:45Z</time>
      </trkpt>
      <trkpt lat="44.04353" lon="1.87911">
        <ele>293.34</ele>
        <time>2011-12-11T15:06:05Z</time>
      </trkpt>
      <trkpt lat="44.04352" lon="1.87908">
        <ele>293.82</ele>
        <time>2011-12-11T15:06:08Z</time>
      </trkpt>
      <trkpt lat="44.04345" lon="1.87881">
        <ele>297.67</ele>
        <time>2011-12-11T15:06:22Z</time>
      </trkpt>
      <trkpt lat="44.04345" lon="1.87877">
        <ele>298.15</ele>
        <time>2011-12-11T15:06:24Z</time>
      </trkpt>
      <trkpt lat="44.04342" lon="1.87869">
        <ele>300.55</ele>
        <time>2011-12-11T15:06:30Z</time>
      </trkpt>
      <trkpt lat="44.04339" lon="1.87858">
        <ele>304.88</ele>
        <time>2011-12-11T15:06:42Z</time>
      </trkpt>
      <trkpt lat="44.04335" lon="1.8785">
        <ele>307.76</ele>
        <time>2011-12-11T15:06:55Z</time>
      </trkpt>
      <trkpt lat="44.04328" lon="1.87833">
        <ele>312.09</ele>
        <time>2011-12-11T15:07:08Z</time>
      </trkpt>
      <trkpt lat="44.04323" lon="1.87822">
        <ele>314.97</ele>
        <time>2011-12-11T15:07:15Z</time>
      </trkpt>
      <trkpt lat="44.04315" lon="1.878">
        <ele>317.37</ele>
        <time>2011-12-11T15:07:29Z</time>
      </trkpt>
      <trkpt lat="44.04313" lon="1.87797">
        <ele>318.81</ele>
        <time>2011-12-11T15:07:32Z</time>
      </trkpt>
      <trkpt lat="44.04302" lon="1.8776">
        <ele>316.41</ele>
        <time>2011-12-11T15:07:49Z</time>
      </trkpt>
      <trkpt lat="44.04299" lon="1.87729">
        <ele>309.68</ele>
        <time>2011-12-11T15:07:58Z</time>
      </trkpt>
      <trkpt lat="44.04294" lon="1.87698">
        <ele>307.28</ele>
        <time>2011-12-11T15:08:12Z</time>
      </trkpt>
      <trkpt lat="44.04283" lon="1.87667">
        <ele>304.39</ele>
        <time>2011-12-11T15:08:27Z</time>
      </trkpt>
      <trkpt lat="44.04277" lon="1.87655">
        <ele>302.95</ele>
        <time>2011-12-11T15:08:34Z</time>
      </trkpt>
      <trkpt lat="44.04268" lon="1.87653">
        <ele>301.51</ele>
        <time>2011-12-11T15:08:46Z</time>
      </trkpt>
      <trkpt lat="44.04266" lon="1.87653">
        <ele>299.11</ele>
        <time>2011-12-11T15:09:08Z</time>
      </trkpt>
      <trkpt lat="44.04263" lon="1.87654">
        <ele>298.63</ele>
        <time>2011-12-11T15:09:12Z</time>
      </trkpt>
      <trkpt lat="44.0426" lon="1.87656">
        <ele>297.18</ele>
        <time>2011-12-11T15:09:23Z</time>
      </trkpt>
      <trkpt lat="44.04259" lon="1.87657">
        <ele>297.18</ele>
        <time>2011-12-11T15:09:24Z</time>
      </trkpt>
      <trkpt lat="44.04257" lon="1.87656">
        <ele>297.18</ele>
        <time>2011-12-11T15:09:26Z</time>
      </trkpt>
      <trkpt lat="44.04251" lon="1.87657">
        <ele>297.18</ele>
        <time>2011-12-11T15:09:30Z</time>
      </trkpt>
      <trkpt lat="44.04234" lon="1.87662">
        <ele>295.26</ele>
        <time>2011-12-11T15:09:44Z</time>
      </trkpt>
      <trkpt lat="44.0422" lon="1.87668">
        <ele>293.34</ele>
        <time>2011-12-11T15:09:58Z</time>
      </trkpt>
      <trkpt lat="44.04216" lon="1.87669">
        <ele>292.38</ele>
        <time>2011-12-11T15:10:04Z</time>
      </trkpt>
      <trkpt lat="44.04203" lon="1.8767">
        <ele>290.46</ele>
        <time>2011-12-11T15:10:18Z</time>
      </trkpt>
      <trkpt lat="44.04191" lon="1.87675">
        <ele>290.94</ele>
        <time>2011-12-11T15:10:30Z</time>
      </trkpt>
      <trkpt lat="44.04175" lon="1.87676">
        <ele>290.94</ele>
        <time>2011-12-11T15:10:41Z</time>
      </trkpt>
      <trkpt lat="44.04153" lon="1.87674">
        <ele>290.46</ele>
        <time>2011-12-11T15:10:54Z</time>
      </trkpt>
      <trkpt lat="44.04145" lon="1.87676">
        <ele>290.46</ele>
        <time>2011-12-11T15:11:04Z</time>
      </trkpt>
      <trkpt lat="44.04133" lon="1.87678">
        <ele>290.46</ele>
        <time>2011-12-11T15:11:15Z</time>
      </trkpt>
      <trkpt lat="44.04114" lon="1.87679">
        <ele>289.97</ele>
        <time>2011-12-11T15:11:29Z</time>
      </trkpt>
      <trkpt lat="44.04085" lon="1.8768">
        <ele>289.01</ele>
        <time>2011-12-11T15:11:43Z</time>
      </trkpt>
      <trkpt lat="44.04057" lon="1.87675">
        <ele>288.53</ele>
        <time>2011-12-11T15:12:01Z</time>
      </trkpt>
      <trkpt lat="44.04037" lon="1.87667">
        <ele>285.65</ele>
        <time>2011-12-11T15:12:18Z</time>
      </trkpt>
      <trkpt lat="44.04018" lon="1.87661">
        <ele>286.13</ele>
        <time>2011-12-11T15:12:32Z</time>
      </trkpt>
      <trkpt lat="44.04002" lon="1.87656">
        <ele>285.17</ele>
        <time>2011-12-11T15:12:46Z</time>
      </trkpt>
      <trkpt lat="44.03981" lon="1.87653">
        <ele>285.65</ele>
        <time>2011-12-11T15:13:02Z</time>
      </trkpt>
      <trkpt lat="44.03963" lon="1.87647">
        <ele>285.65</ele>
        <time>2011-12-11T15:13:15Z</time>
      </trkpt>
      <trkpt lat="44.03945" lon="1.87644">
        <ele>284.69</ele>
        <time>2011-12-11T15:13:30Z</time>
      </trkpt>
      <trkpt lat="44.03926" lon="1.87643">
        <ele>284.69</ele>
        <time>2011-12-11T15:13:45Z</time>
      </trkpt>
      <trkpt lat="44.0392" lon="1.87645">
        <ele>285.65</ele>
        <time>2011-12-11T15:13:51Z</time>
      </trkpt>
      <trkpt lat="44.03904" lon="1.87642">
        <ele>288.05</ele>
        <time>2011-12-11T15:14:02Z</time>
      </trkpt>
      <trkpt lat="44.03888" lon="1.87645">
        <ele>291.42</ele>
        <time>2011-12-11T15:14:14Z</time>
      </trkpt>
      <trkpt lat="44.03885" lon="1.87647">
        <ele>291.42</ele>
        <time>2011-12-11T15:14:16Z</time>
      </trkpt>
      <trkpt lat="44.0387" lon="1.87652">
        <ele>289.97</ele>
        <time>2011-12-11T15:14:29Z</time>
      </trkpt>
      <trkpt lat="44.03857" lon="1.8766">
        <ele>288.53</ele>
        <time>2011-12-11T15:14:42Z</time>
      </trkpt>
      <trkpt lat="44.03851" lon="1.8766">
        <ele>286.13</ele>
        <time>2011-12-11T15:14:54Z</time>
      </trkpt>
      <trkpt lat="44.03849" lon="1.87659">
        <ele>286.61</ele>
        <time>2011-12-11T15:15:05Z</time>
      </trkpt>
      <trkpt lat="44.03846" lon="1.87659">
        <ele>287.09</ele>
        <time>2011-12-11T15:17:55Z</time>
      </trkpt>
      <trkpt lat="44.03842" lon="1.87651">
        <ele>285.17</ele>
        <time>2011-12-11T15:18:08Z</time>
      </trkpt>
      <trkpt lat="44.03839" lon="1.87646">
        <ele>286.13</ele>
        <time>2011-12-11T15:18:13Z</time>
      </trkpt>
      <trkpt lat="44.03834" lon="1.87631">
        <ele>287.57</ele>
        <time>2011-12-11T15:18:25Z</time>
      </trkpt>
      <trkpt lat="44.03832" lon="1.87629">
        <ele>288.05</ele>
        <time>2011-12-11T15:18:27Z</time>
      </trkpt>
      <trkpt lat="44.03828" lon="1.87608">
        <ele>286.61</ele>
        <time>2011-12-11T15:18:41Z</time>
      </trkpt>
      <trkpt lat="44.03825" lon="1.87605">
        <ele>287.57</ele>
        <time>2011-12-11T15:18:45Z</time>
      </trkpt>
      <trkpt lat="44.03816" lon="1.8759">
        <ele>289.49</ele>
        <time>2011-12-11T15:18:59Z</time>
      </trkpt>
      <trkpt lat="44.0381" lon="1.87578">
        <ele>293.82</ele>
        <time>2011-12-11T15:19:09Z</time>
      </trkpt>
      <trkpt lat="44.03805" lon="1.87573">
        <ele>297.18</ele>
        <time>2011-12-11T15:19:17Z</time>
      </trkpt>
      <trkpt lat="44.03799" lon="1.87567">
        <ele>301.03</ele>
        <time>2011-12-11T15:19:25Z</time>
      </trkpt>
      <trkpt lat="44.0379" lon="1.87561">
        <ele>306.32</ele>
        <time>2011-12-11T15:19:36Z</time>
      </trkpt>
      <trkpt lat="44.03785" lon="1.87554">
        <ele>307.28</ele>
        <time>2011-12-11T15:19:42Z</time>
      </trkpt>
      <trkpt lat="44.03784" lon="1.87552">
        <ele>307.28</ele>
        <time>2011-12-11T15:19:44Z</time>
      </trkpt>
      <trkpt lat="44.03783" lon="1.87549">
        <ele>307.28</ele>
        <time>2011-12-11T15:19:46Z</time>
      </trkpt>
      <trkpt lat="44.03779" lon="1.87539">
        <ele>308.24</ele>
        <time>2011-12-11T15:19:52Z</time>
      </trkpt>
      <trkpt lat="44.03775" lon="1.87532">
        <ele>308.72</ele>
        <time>2011-12-11T15:19:57Z</time>
      </trkpt>
      <trkpt lat="44.03771" lon="1.87527">
        <ele>310.64</ele>
        <time>2011-12-11T15:20:02Z</time>
      </trkpt>
      <trkpt lat="44.03763" lon="1.87512">
        <ele>310.16</ele>
        <time>2011-12-11T15:20:15Z</time>
      </trkpt>
      <trkpt lat="44.03758" lon="1.87502">
        <ele>311.6</ele>
        <time>2011-12-11T15:20:24Z</time>
      </trkpt>
      <trkpt lat="44.03748" lon="1.87482">
        <ele>312.09</ele>
        <time>2011-12-11T15:20:36Z</time>
      </trkpt>
      <trkpt lat="44.03748" lon="1.87478">
        <ele>312.57</ele>
        <time>2011-12-11T15:20:38Z</time>
      </trkpt>
      <trkpt lat="44.0374" lon="1.87464">
        <ele>310.64</ele>
        <time>2011-12-11T15:20:47Z</time>
      </trkpt>
      <trkpt lat="44.0373" lon="1.87439">
        <ele>306.32</ele>
        <time>2011-12-11T15:21:00Z</time>
      </trkpt>
      <trkpt lat="44.0372" lon="1.87421">
        <ele>300.07</ele>
        <time>2011-12-11T15:21:12Z</time>
      </trkpt>
      <trkpt lat="44.03725" lon="1.87393">
        <ele>280.84</ele>
        <time>2011-12-11T15:21:32Z</time>
      </trkpt>
      <trkpt lat="44.03723" lon="1.87389">
        <ele>277.48</ele>
        <time>2011-12-11T15:21:58Z</time>
      </trkpt>
      <trkpt lat="44.03717" lon="1.87379">
        <ele>277</ele>
        <time>2011-12-11T15:22:09Z</time>
      </trkpt>
      <trkpt lat="44.03714" lon="1.87372">
        <ele>276.52</ele>
        <time>2011-12-11T15:22:15Z</time>
      </trkpt>
      <trkpt lat="44.03704" lon="1.87356">
        <ele>275.07</ele>
        <time>2011-12-11T15:22:30Z</time>
      </trkpt>
      <trkpt lat="44.03703" lon="1.87355">
        <ele>275.56</ele>
        <time>2011-12-11T15:22:31Z</time>
      </trkpt>
      <trkpt lat="44.03698" lon="1.87347">
        <ele>275.07</ele>
        <time>2011-12-11T15:22:36Z</time>
      </trkpt>
      <trkpt lat="44.03684" lon="1.87323">
        <ele>272.67</ele>
        <time>2011-12-11T15:22:52Z</time>
      </trkpt>
      <trkpt lat="44.03674" lon="1.87313">
        <ele>271.71</ele>
        <time>2011-12-11T15:23:02Z</time>
      </trkpt>
      <trkpt lat="44.03671" lon="1.87309">
        <ele>272.67</ele>
        <time>2011-12-11T15:23:07Z</time>
      </trkpt>
      <trkpt lat="44.03659" lon="1.87292">
        <ele>277</ele>
        <time>2011-12-11T15:23:21Z</time>
      </trkpt>
      <trkpt lat="44.0365" lon="1.8728">
        <ele>281.8</ele>
        <time>2011-12-11T15:23:32Z</time>
      </trkpt>
      <trkpt lat="44.03641" lon="1.87264">
        <ele>289.01</ele>
        <time>2011-12-11T15:23:44Z</time>
      </trkpt>
      <trkpt lat="44.03637" lon="1.87259">
        <ele>292.86</ele>
        <time>2011-12-11T15:23:50Z</time>
      </trkpt>
      <trkpt lat="44.03633" lon="1.87248">
        <ele>295.74</ele>
        <time>2011-12-11T15:23:59Z</time>
      </trkpt>
      <trkpt lat="44.03628" lon="1.87236">
        <ele>300.07</ele>
        <time>2011-12-11T15:24:09Z</time>
      </trkpt>
      <trkpt lat="44.03618" lon="1.87231">
        <ele>303.91</ele>
        <time>2011-12-11T15:24:16Z</time>
      </trkpt>
      <trkpt lat="44.03612" lon="1.87226">
        <ele>307.28</ele>
        <time>2011-12-11T15:24:24Z</time>
      </trkpt>
      <trkpt lat="44.03601" lon="1.87216">
        <ele>311.12</ele>
        <time>2011-12-11T15:24:33Z</time>
      </trkpt>
      <trkpt lat="44.03595" lon="1.87193">
        <ele>310.16</ele>
        <time>2011-12-11T15:24:45Z</time>
      </trkpt>
      <trkpt lat="44.03585" lon="1.87182">
        <ele>312.09</ele>
        <time>2011-12-11T15:24:57Z</time>
      </trkpt>
      <trkpt lat="44.03581" lon="1.87176">
        <ele>313.05</ele>
        <time>2011-12-11T15:25:02Z</time>
      </trkpt>
      <trkpt lat="44.03569" lon="1.87161">
        <ele>313.53</ele>
        <time>2011-12-11T15:25:13Z</time>
      </trkpt>
      <trkpt lat="44.03557" lon="1.87141">
        <ele>312.57</ele>
        <time>2011-12-11T15:25:26Z</time>
      </trkpt>
      <trkpt lat="44.03546" lon="1.87126">
        <ele>308.24</ele>
        <time>2011-12-11T15:25:39Z</time>
      </trkpt>
      <trkpt lat="44.03541" lon="1.8711">
        <ele>301.03</ele>
        <time>2011-12-11T15:25:45Z</time>
      </trkpt>
      <trkpt lat="44.03528" lon="1.87094">
        <ele>289.01</ele>
        <time>2011-12-11T15:25:57Z</time>
      </trkpt>
      <trkpt lat="44.03514" lon="1.87087">
        <ele>285.65</ele>
        <time>2011-12-11T15:26:09Z</time>
      </trkpt>
      <trkpt lat="44.03503" lon="1.8708">
        <ele>286.13</ele>
        <time>2011-12-11T15:26:21Z</time>
      </trkpt>
      <trkpt lat="44.035" lon="1.8708">
        <ele>285.65</ele>
        <time>2011-12-11T15:26:23Z</time>
      </trkpt>
      <trkpt lat="44.0348" lon="1.87068">
        <ele>284.21</ele>
        <time>2011-12-11T15:26:38Z</time>
      </trkpt>
      <trkpt lat="44.03468" lon="1.87059">
        <ele>286.13</ele>
        <time>2011-12-11T15:26:50Z</time>
      </trkpt>
      <trkpt lat="44.03463" lon="1.87052">
        <ele>287.09</ele>
        <time>2011-12-11T15:26:59Z</time>
      </trkpt>
      <trkpt lat="44.03449" lon="1.87039">
        <ele>288.53</ele>
        <time>2011-12-11T15:27:13Z</time>
      </trkpt>
      <trkpt lat="44.03438" lon="1.87027">
        <ele>289.01</ele>
        <time>2011-12-11T15:27:26Z</time>
      </trkpt>
      <trkpt lat="44.0342" lon="1.87015">
        <ele>286.61</ele>
        <time>2011-12-11T15:27:40Z</time>
      </trkpt>
      <trkpt lat="44.03418" lon="1.87013">
        <ele>285.65</ele>
        <time>2011-12-11T15:28:00Z</time>
      </trkpt>
      <trkpt lat="44.03416" lon="1.87014">
        <ele>286.13</ele>
        <time>2011-12-11T15:28:26Z</time>
      </trkpt>
      <trkpt lat="44.03406" lon="1.87014">
        <ele>284.69</ele>
        <time>2011-12-11T15:29:38Z</time>
      </trkpt>
      <trkpt lat="44.03402" lon="1.87012">
        <ele>283.73</ele>
        <time>2011-12-11T15:30:38Z</time>
      </trkpt>
      <trkpt lat="44.034" lon="1.8701">
        <ele>282.77</ele>
        <time>2011-12-11T15:30:41Z</time>
      </trkpt>
      <trkpt lat="44.03379" lon="1.87011">
        <ele>281.32</ele>
        <time>2011-12-11T15:30:56Z</time>
      </trkpt>
      <trkpt lat="44.0336" lon="1.87011">
        <ele>279.88</ele>
        <time>2011-12-11T15:31:12Z</time>
      </trkpt>
      <trkpt lat="44.03354" lon="1.8701">
        <ele>279.4</ele>
        <time>2011-12-11T15:31:17Z</time>
      </trkpt>
      <trkpt lat="44.03347" lon="1.87009">
        <ele>278.92</ele>
        <time>2011-12-11T15:31:23Z</time>
      </trkpt>
      <trkpt lat="44.03343" lon="1.87008">
        <ele>277.96</ele>
        <time>2011-12-11T15:31:27Z</time>
      </trkpt>
      <trkpt lat="44.03329" lon="1.87004">
        <ele>277.96</ele>
        <time>2011-12-11T15:31:39Z</time>
      </trkpt>
      <trkpt lat="44.03325" lon="1.87004">
        <ele>278.44</ele>
        <time>2011-12-11T15:31:43Z</time>
      </trkpt>
      <trkpt lat="44.0331" lon="1.86995">
        <ele>278.92</ele>
        <time>2011-12-11T15:31:59Z</time>
      </trkpt>
      <trkpt lat="44.03302" lon="1.8699">
        <ele>281.32</ele>
        <time>2011-12-11T15:32:07Z</time>
      </trkpt>
      <trkpt lat="44.03299" lon="1.8699">
        <ele>281.8</ele>
        <time>2011-12-11T15:32:09Z</time>
      </trkpt>
      <trkpt lat="44.03284" lon="1.86981">
        <ele>286.13</ele>
        <time>2011-12-11T15:32:21Z</time>
      </trkpt>
      <trkpt lat="44.03281" lon="1.86978">
        <ele>287.09</ele>
        <time>2011-12-11T15:32:25Z</time>
      </trkpt>
      <trkpt lat="44.03277" lon="1.86976">
        <ele>289.01</ele>
        <time>2011-12-11T15:32:29Z</time>
      </trkpt>
      <trkpt lat="44.03269" lon="1.86974">
        <ele>294.3</ele>
        <time>2011-12-11T15:32:42Z</time>
      </trkpt>
      <trkpt lat="44.03258" lon="1.86976">
        <ele>299.59</ele>
        <time>2011-12-11T15:32:55Z</time>
      </trkpt>
      <trkpt lat="44.03237" lon="1.86982">
        <ele>296.7</ele>
        <time>2011-12-11T15:33:09Z</time>
      </trkpt>
      <trkpt lat="44.03205" lon="1.86994">
        <ele>290.46</ele>
        <time>2011-12-11T15:33:22Z</time>
      </trkpt>
      <trkpt lat="44.03189" lon="1.87016">
        <ele>284.69</ele>
        <time>2011-12-11T15:33:36Z</time>
      </trkpt>
      <trkpt lat="44.03183" lon="1.8703">
        <ele>285.17</ele>
        <time>2011-12-11T15:33:46Z</time>
      </trkpt>
      <trkpt lat="44.03183" lon="1.87038">
        <ele>283.25</ele>
        <time>2011-12-11T15:33:53Z</time>
      </trkpt>
      <trkpt lat="44.03175" lon="1.87044">
        <ele>282.77</ele>
        <time>2011-12-11T15:34:00Z</time>
      </trkpt>
      <trkpt lat="44.03171" lon="1.87047">
        <ele>282.77</ele>
        <time>2011-12-11T15:34:03Z</time>
      </trkpt>
      <trkpt lat="44.03166" lon="1.87054">
        <ele>282.28</ele>
        <time>2011-12-11T15:34:10Z</time>
      </trkpt>
      <trkpt lat="44.03154" lon="1.87052">
        <ele>278.44</ele>
        <time>2011-12-11T15:34:24Z</time>
      </trkpt>
      <trkpt lat="44.03152" lon="1.8705">
        <ele>277.48</ele>
        <time>2011-12-11T15:34:27Z</time>
      </trkpt>
      <trkpt lat="44.03137" lon="1.87043">
        <ele>272.67</ele>
        <time>2011-12-11T15:34:40Z</time>
      </trkpt>
      <trkpt lat="44.03122" lon="1.87035">
        <ele>270.75</ele>
        <time>2011-12-11T15:34:54Z</time>
      </trkpt>
      <trkpt lat="44.03112" lon="1.87032">
        <ele>270.27</ele>
        <time>2011-12-11T15:35:05Z</time>
      </trkpt>
      <trkpt lat="44.03097" lon="1.87028">
        <ele>273.63</ele>
        <time>2011-12-11T15:35:17Z</time>
      </trkpt>
      <trkpt lat="44.03082" lon="1.87032">
        <ele>275.07</ele>
        <time>2011-12-11T15:35:29Z</time>
      </trkpt>
      <trkpt lat="44.03074" lon="1.87037">
        <ele>276.04</ele>
        <time>2011-12-11T15:35:40Z</time>
      </trkpt>
      <trkpt lat="44.03073" lon="1.87037">
        <ele>276.52</ele>
        <time>2011-12-11T15:35:41Z</time>
      </trkpt>
      <trkpt lat="44.03067" lon="1.87038">
        <ele>279.88</ele>
        <time>2011-12-11T15:35:46Z</time>
      </trkpt>
      <trkpt lat="44.03058" lon="1.87039">
        <ele>282.77</ele>
        <time>2011-12-11T15:35:56Z</time>
      </trkpt>
      <trkpt lat="44.03046" lon="1.8704">
        <ele>284.69</ele>
        <time>2011-12-11T15:36:08Z</time>
      </trkpt>
      <trkpt lat="44.03037" lon="1.87042">
        <ele>283.73</ele>
        <time>2011-12-11T15:36:17Z</time>
      </trkpt>
      <trkpt lat="44.03025" lon="1.87041">
        <ele>283.25</ele>
        <time>2011-12-11T15:36:28Z</time>
      </trkpt>
      <trkpt lat="44.03009" lon="1.87039">
        <ele>283.73</ele>
        <time>2011-12-11T15:36:45Z</time>
      </trkpt>
      <trkpt lat="44.02995" lon="1.87035">
        <ele>282.77</ele>
        <time>2011-12-11T15:36:56Z</time>
      </trkpt>
      <trkpt lat="44.02989" lon="1.87034">
        <ele>282.77</ele>
        <time>2011-12-11T15:36:58Z</time>
      </trkpt>
      <trkpt lat="44.02975" lon="1.8703">
        <ele>284.21</ele>
        <time>2011-12-11T15:37:09Z</time>
      </trkpt>
      <trkpt lat="44.02972" lon="1.8703">
        <ele>284.69</ele>
        <time>2011-12-11T15:37:11Z</time>
      </trkpt>
      <trkpt lat="44.02956" lon="1.87033">
        <ele>282.28</ele>
        <time>2011-12-11T15:37:24Z</time>
      </trkpt>
      <trkpt lat="44.02941" lon="1.87037">
        <ele>280.36</ele>
        <time>2011-12-11T15:37:36Z</time>
      </trkpt>
      <trkpt lat="44.02927" lon="1.87042">
        <ele>278.92</ele>
        <time>2011-12-11T15:37:48Z</time>
      </trkpt>
      <trkpt lat="44.02914" lon="1.87046">
        <ele>276.04</ele>
        <time>2011-12-11T15:37:59Z</time>
      </trkpt>
      <trkpt lat="44.02906" lon="1.87051">
        <ele>275.07</ele>
        <time>2011-12-11T15:38:05Z</time>
      </trkpt>
      <trkpt lat="44.02894" lon="1.8706">
        <ele>273.63</ele>
        <time>2011-12-11T15:38:14Z</time>
      </trkpt>
      <trkpt lat="44.02879" lon="1.87073">
        <ele>270.75</ele>
        <time>2011-12-11T15:38:29Z</time>
      </trkpt>
      <trkpt lat="44.02876" lon="1.87078">
        <ele>270.27</ele>
        <time>2011-12-11T15:38:33Z</time>
      </trkpt>
      <trkpt lat="44.02862" lon="1.87088">
        <ele>268.35</ele>
        <time>2011-12-11T15:38:47Z</time>
      </trkpt>
      <trkpt lat="44.02851" lon="1.87093">
        <ele>265.94</ele>
        <time>2011-12-11T15:38:57Z</time>
      </trkpt>
      <trkpt lat="44.02837" lon="1.87099">
        <ele>266.42</ele>
        <time>2011-12-11T15:39:10Z</time>
      </trkpt>
      <trkpt lat="44.02827" lon="1.871">
        <ele>267.38</ele>
        <time>2011-12-11T15:39:18Z</time>
      </trkpt>
      <trkpt lat="44.02815" lon="1.87106">
        <ele>266.42</ele>
        <time>2011-12-11T15:39:30Z</time>
      </trkpt>
      <trkpt lat="44.02807" lon="1.87109">
        <ele>265.46</ele>
        <time>2011-12-11T15:39:37Z</time>
      </trkpt>
      <trkpt lat="44.02799" lon="1.87112">
        <ele>265.94</ele>
        <time>2011-12-11T15:39:43Z</time>
      </trkpt>
      <trkpt lat="44.02788" lon="1.87126">
        <ele>266.9</ele>
        <time>2011-12-11T15:39:55Z</time>
      </trkpt>
      <trkpt lat="44.02788" lon="1.87127">
        <ele>267.38</ele>
        <time>2011-12-11T15:39:56Z</time>
      </trkpt>
      <trkpt lat="44.02775" lon="1.87144">
        <ele>263.06</ele>
        <time>2011-12-11T15:40:10Z</time>
      </trkpt>
      <trkpt lat="44.0276" lon="1.87154">
        <ele>262.1</ele>
        <time>2011-12-11T15:40:24Z</time>
      </trkpt>
      <trkpt lat="44.02755" lon="1.87159">
        <ele>261.62</ele>
        <time>2011-12-11T15:40:29Z</time>
      </trkpt>
      <trkpt lat="44.02735" lon="1.87168">
        <ele>259.69</ele>
        <time>2011-12-11T15:40:46Z</time>
      </trkpt>
      <trkpt lat="44.0272" lon="1.87175">
        <ele>259.21</ele>
        <time>2011-12-11T15:41:00Z</time>
      </trkpt>
      <trkpt lat="44.0271" lon="1.87178">
        <ele>258.25</ele>
        <time>2011-12-11T15:41:09Z</time>
      </trkpt>
      <trkpt lat="44.02695" lon="1.87181">
        <ele>256.33</ele>
        <time>2011-12-11T15:41:22Z</time>
      </trkpt>
      <trkpt lat="44.02684" lon="1.87185">
        <ele>255.85</ele>
        <time>2011-12-11T15:41:34Z</time>
      </trkpt>
      <trkpt lat="44.02672" lon="1.87192">
        <ele>256.33</ele>
        <time>2011-12-11T15:41:45Z</time>
      </trkpt>
      <trkpt lat="44.02662" lon="1.872">
        <ele>255.37</ele>
        <time>2011-12-11T15:41:56Z</time>
      </trkpt>
      <trkpt lat="44.02655" lon="1.87204">
        <ele>254.41</ele>
        <time>2011-12-11T15:42:01Z</time>
      </trkpt>
      <trkpt lat="44.02651" lon="1.87208">
        <ele>253.44</ele>
        <time>2011-12-11T15:42:05Z</time>
      </trkpt>
      <trkpt lat="44.0265" lon="1.8721">
        <ele>253.44</ele>
        <time>2011-12-11T15:42:07Z</time>
      </trkpt>
      <trkpt lat="44.0265" lon="1.8722">
        <ele>252.48</ele>
        <time>2011-12-11T15:42:22Z</time>
      </trkpt>
      <trkpt lat="44.0265" lon="1.8722">
        <ele>252.96</ele>
        <time>2011-12-11T15:42:39Z</time>
      </trkpt>
      <trkpt lat="44.02648" lon="1.87215">
        <ele>253.44</ele>
        <time>2011-12-11T15:42:43Z</time>
      </trkpt>
      <trkpt lat="44.02638" lon="1.87204">
        <ele>252.48</ele>
        <time>2011-12-11T15:42:57Z</time>
      </trkpt>
      <trkpt lat="44.02621" lon="1.87208">
        <ele>251.04</ele>
        <time>2011-12-11T15:43:10Z</time>
      </trkpt>
      <trkpt lat="44.02618" lon="1.87209">
        <ele>251.04</ele>
        <time>2011-12-11T15:43:12Z</time>
      </trkpt>
      <trkpt lat="44.02602" lon="1.87218">
        <ele>247.68</ele>
        <time>2011-12-11T15:43:23Z</time>
      </trkpt>
      <trkpt lat="44.02589" lon="1.8722">
        <ele>243.83</ele>
        <time>2011-12-11T15:43:34Z</time>
      </trkpt>
      <trkpt lat="44.02577" lon="1.87221">
        <ele>244.31</ele>
        <time>2011-12-11T15:43:46Z</time>
      </trkpt>
      <trkpt lat="44.02554" lon="1.87222">
        <ele>243.35</ele>
        <time>2011-12-11T15:44:01Z</time>
      </trkpt>
      <trkpt lat="44.02554" lon="1.87223">
        <ele>243.35</ele>
        <time>2011-12-11T15:44:02Z</time>
      </trkpt>
      <trkpt lat="44.02546" lon="1.87225">
        <ele>242.39</ele>
        <time>2011-12-11T15:44:08Z</time>
      </trkpt>
      <trkpt lat="44.02528" lon="1.87226">
        <ele>240.47</ele>
        <time>2011-12-11T15:44:22Z</time>
      </trkpt>
      <trkpt lat="44.02523" lon="1.87227">
        <ele>238.54</ele>
        <time>2011-12-11T15:44:26Z</time>
      </trkpt>
      <trkpt lat="44.02504" lon="1.87232">
        <ele>231.81</ele>
        <time>2011-12-11T15:44:39Z</time>
      </trkpt>
      <trkpt lat="44.025" lon="1.87234">
        <ele>229.41</ele>
        <time>2011-12-11T15:44:42Z</time>
      </trkpt>
      <trkpt lat="44.02491" lon="1.87239">
        <ele>225.57</ele>
        <time>2011-12-11T15:44:49Z</time>
      </trkpt>
      <trkpt lat="44.02485" lon="1.87244">
        <ele>223.64</ele>
        <time>2011-12-11T15:44:59Z</time>
      </trkpt>
      <trkpt lat="44.02474" lon="1.87248">
        <ele>222.68</ele>
        <time>2011-12-11T15:45:07Z</time>
      </trkpt>
      <trkpt lat="44.02457" lon="1.87257">
        <ele>217.88</ele>
        <time>2011-12-11T15:45:21Z</time>
      </trkpt>
      <trkpt lat="44.0244" lon="1.87272">
        <ele>214.99</ele>
        <time>2011-12-11T15:45:35Z</time>
      </trkpt>
      <trkpt lat="44.0244" lon="1.87273">
        <ele>214.99</ele>
        <time>2011-12-11T15:45:36Z</time>
      </trkpt>
      <trkpt lat="44.02428" lon="1.87289">
        <ele>216.43</ele>
        <time>2011-12-11T15:45:49Z</time>
      </trkpt>
      <trkpt lat="44.02424" lon="1.87292">
        <ele>215.95</ele>
        <time>2011-12-11T15:45:53Z</time>
      </trkpt>
      <trkpt lat="44.02416" lon="1.87311">
        <ele>213.07</ele>
        <time>2011-12-11T15:46:07Z</time>
      </trkpt>
      <trkpt lat="44.02407" lon="1.87316">
        <ele>217.4</ele>
        <time>2011-12-11T15:46:18Z</time>
      </trkpt>
      <trkpt lat="44.02399" lon="1.87316">
        <ele>218.84</ele>
        <time>2011-12-11T15:46:33Z</time>
      </trkpt>
      <trkpt lat="44.02397" lon="1.87318">
        <ele>218.84</ele>
        <time>2011-12-11T15:46:35Z</time>
      </trkpt>
      <trkpt lat="44.02392" lon="1.87328">
        <ele>220.76</ele>
        <time>2011-12-11T15:46:42Z</time>
      </trkpt>
      <trkpt lat="44.02391" lon="1.87341">
        <ele>221.24</ele>
        <time>2011-12-11T15:46:48Z</time>
      </trkpt>
      <trkpt lat="44.0239" lon="1.87343">
        <ele>221.24</ele>
        <time>2011-12-11T15:46:50Z</time>
      </trkpt>
      <trkpt lat="44.02384" lon="1.87352">
        <ele>223.64</ele>
        <time>2011-12-11T15:47:03Z</time>
      </trkpt>
      <trkpt lat="44.02383" lon="1.87355">
        <ele>224.61</ele>
        <time>2011-12-11T15:47:14Z</time>
      </trkpt>
      <trkpt lat="44.0237" lon="1.87369">
        <ele>227.97</ele>
        <time>2011-12-11T15:47:27Z</time>
      </trkpt>
      <trkpt lat="44.02363" lon="1.87384">
        <ele>230.85</ele>
        <time>2011-12-11T15:47:39Z</time>
      </trkpt>
      <trkpt lat="44.02362" lon="1.87389">
        <ele>231.33</ele>
        <time>2011-12-11T15:47:42Z</time>
      </trkpt>
      <trkpt lat="44.02359" lon="1.87409">
        <ele>233.26</ele>
        <time>2011-12-11T15:47:55Z</time>
      </trkpt>
      <trkpt lat="44.02358" lon="1.87419">
        <ele>236.14</ele>
        <time>2011-12-11T15:48:03Z</time>
      </trkpt>
      <trkpt lat="44.02358" lon="1.87443">
        <ele>240.95</ele>
        <time>2011-12-11T15:48:17Z</time>
      </trkpt>
      <trkpt lat="44.02359" lon="1.87457">
        <ele>242.87</ele>
        <time>2011-12-11T15:48:25Z</time>
      </trkpt>
      <trkpt lat="44.02367" lon="1.87476">
        <ele>245.75</ele>
        <time>2011-12-11T15:48:38Z</time>
      </trkpt>
      <trkpt lat="44.02368" lon="1.87479">
        <ele>246.23</ele>
        <time>2011-12-11T15:48:41Z</time>
      </trkpt>
      <trkpt lat="44.02373" lon="1.87484">
        <ele>246.72</ele>
        <time>2011-12-11T15:48:56Z</time>
      </trkpt>
      <trkpt lat="44.02377" lon="1.87488">
        <ele>246.23</ele>
        <time>2011-12-11T15:49:08Z</time>
      </trkpt>
      <trkpt lat="44.02388" lon="1.87501">
        <ele>246.23</ele>
        <time>2011-12-11T15:49:21Z</time>
      </trkpt>
      <trkpt lat="44.02396" lon="1.87511">
        <ele>244.79</ele>
        <time>2011-12-11T15:49:30Z</time>
      </trkpt>
      <trkpt lat="44.02397" lon="1.87514">
        <ele>244.79</ele>
        <time>2011-12-11T15:49:32Z</time>
      </trkpt>
      <trkpt lat="44.02405" lon="1.87524">
        <ele>245.75</ele>
        <time>2011-12-11T15:49:42Z</time>
      </trkpt>
      <trkpt lat="44.0241" lon="1.87536">
        <ele>247.2</ele>
        <time>2011-12-11T15:49:50Z</time>
      </trkpt>
      <trkpt lat="44.0242" lon="1.87557">
        <ele>248.64</ele>
        <time>2011-12-11T15:50:05Z</time>
      </trkpt>
      <trkpt lat="44.02425" lon="1.87573">
        <ele>250.08</ele>
        <time>2011-12-11T15:50:18Z</time>
      </trkpt>
      <trkpt lat="44.02424" lon="1.8759">
        <ele>252.48</ele>
        <time>2011-12-11T15:50:33Z</time>
      </trkpt>
      <trkpt lat="44.02423" lon="1.87608">
        <ele>255.37</ele>
        <time>2011-12-11T15:50:49Z</time>
      </trkpt>
      <trkpt lat="44.02423" lon="1.87623">
        <ele>259.69</ele>
        <time>2011-12-11T15:51:02Z</time>
      </trkpt>
      <trkpt lat="44.02424" lon="1.87633">
        <ele>262.1</ele>
        <time>2011-12-11T15:51:18Z</time>
      </trkpt>
      <trkpt lat="44.02423" lon="1.87645">
        <ele>263.06</ele>
        <time>2011-12-11T15:51:24Z</time>
      </trkpt>
      <trkpt lat="44.02417" lon="1.87651">
        <ele>264.98</ele>
        <time>2011-12-11T15:51:29Z</time>
      </trkpt>
      <trkpt lat="44.02409" lon="1.87663">
        <ele>267.38</ele>
        <time>2011-12-11T15:51:39Z</time>
      </trkpt>
      <trkpt lat="44.02406" lon="1.87666">
        <ele>270.75</ele>
        <time>2011-12-11T15:51:56Z</time>
      </trkpt>
      <trkpt lat="44.02405" lon="1.87668">
        <ele>271.23</ele>
        <time>2011-12-11T15:51:59Z</time>
      </trkpt>
      <trkpt lat="44.02405" lon="1.8768">
        <ele>271.23</ele>
        <time>2011-12-11T15:52:05Z</time>
      </trkpt>
    </trkseg>
  </trk>
</gpx>